<?xml version="1.0" encoding="UTF-8" standalone="no" ?><gpx xmlns="http://www.topografix.com/GPX/1/1" xmlns:gpxx="http://www.garmin.com/xmlschemas/GpxExtensions/v3" xmlns:wptx1="http://www.garmin.com/xmlschemas/WaypointExtension/v1" xmlns:gpxtpx="http://www.garmin.com/xmlschemas/TrackPointExtension/v1" creator="Dakota 20" version="1.1" xmlns:xsi="http://www.w3.org/2001/XMLSchema-instance" xsi:schemaLocation="http://www.topografix.com/GPX/1/1 http://www.topografix.com/GPX/1/1/gpx.xsd http://www.garmin.com/xmlschemas/GpxExtensions/v3 http://www8.garmin.com/xmlschemas/GpxExtensionsv3.xsd http://www.garmin.com/xmlschemas/WaypointExtension/v1 http://www8.garmin.com/xmlschemas/WaypointExtensionv1.xsd http://www.garmin.com/xmlschemas/TrackPointExtension/v1 http://www.garmin.com/xmlschemas/TrackPointExtensionv1.xsd"><metadata><link href="http://www.garmin.com"><text>Garmin International</text></link><time>2011-10-26T15:04:13Z</time></metadata><trk><name>Current Track: 26 OCT 2011 10:05</name><extensions><gpxx:TrackExtension><gpxx:DisplayColor>Black</gpxx:DisplayColor></gpxx:TrackExtension></extensions><trkseg><trkpt lat="51.9486830570" lon="-2.2278247867"><ele>11.19</ele><time>2011-10-26T09:05:06Z</time></trkpt><trkpt lat="51.9486830570" lon="-2.2278247867"><ele>11.19</ele><time>2011-10-26T09:05:21Z</time></trkpt><trkpt lat="51.9486845657" lon="-2.2278200090"><ele>11.19</ele><time>2011-10-26T09:05:34Z</time></trkpt><trkpt lat="51.9486845657" lon="-2.2278200090"><ele>11.19</ele><time>2011-10-26T09:05:47Z</time></trkpt><trkpt lat="51.9486845657" lon="-2.2278200090"><ele>11.19</ele><time>2011-10-26T09:05:59Z</time></trkpt><trkpt lat="51.9486871641" lon="-2.2278176621"><ele>11.19</ele><time>2011-10-26T09:06:22Z</time></trkpt><trkpt lat="51.9486871641" lon="-2.2278176621"><ele>11.19</ele><time>2011-10-26T09:06:45Z</time></trkpt><trkpt lat="51.9486885052" lon="-2.2278162371"><ele>10.71</ele><time>2011-10-26T09:07:05Z</time></trkpt><trkpt lat="51.9487209432" lon="-2.2277740762"><ele>10.71</ele><time>2011-10-26T09:07:17Z</time></trkpt><trkpt lat="51.9487186801" lon="-2.2276427317"><ele>10.71</ele><time>2011-10-26T09:07:25Z</time></trkpt><trkpt lat="51.9487154949" lon="-2.2275805380"><ele>11.67</ele><time>2011-10-26T09:07:29Z</time></trkpt><trkpt lat="51.9487276487" lon="-2.2275342699"><ele>11.19</ele><time>2011-10-26T09:07:32Z</time></trkpt><trkpt lat="51.9487575721" lon="-2.2274849005"><ele>11.67</ele><time>2011-10-26T09:07:36Z</time></trkpt><trkpt lat="51.9488273934" lon="-2.2274638619"><ele>11.19</ele><time>2011-10-26T09:07:43Z</time></trkpt><trkpt lat="51.9489206839" lon="-2.2273980640"><ele>11.67</ele><time>2011-10-26T09:07:51Z</time></trkpt><trkpt lat="51.9489320833" lon="-2.2273978963"><ele>11.67</ele><time>2011-10-26T09:07:52Z</time></trkpt><trkpt lat="51.9490081072" lon="-2.2274634428"><ele>12.63</ele><time>2011-10-26T09:08:02Z</time></trkpt><trkpt lat="51.9490448199" lon="-2.2274759319"><ele>14.08</ele><time>2011-10-26T09:08:07Z</time></trkpt><trkpt lat="51.9490722287" lon="-2.2274198569"><ele>15.04</ele><time>2011-10-26T09:08:12Z</time></trkpt><trkpt lat="51.9490635116" lon="-2.2273609322"><ele>15.04</ele><time>2011-10-26T09:08:15Z</time></trkpt><trkpt lat="51.9490385335" lon="-2.2271997482"><ele>15.52</ele><time>2011-10-26T09:08:24Z</time></trkpt><trkpt lat="51.9490171596" lon="-2.2270907834"><ele>15.52</ele><time>2011-10-26T09:08:32Z</time></trkpt><trkpt lat="51.9489926007" lon="-2.2269622888"><ele>16.00</ele><time>2011-10-26T09:08:41Z</time></trkpt><trkpt lat="51.9489746634" lon="-2.2268483788"><ele>16.00</ele><time>2011-10-26T09:08:49Z</time></trkpt><trkpt lat="51.9489415549" lon="-2.2267018631"><ele>16.48</ele><time>2011-10-26T09:08:58Z</time></trkpt><trkpt lat="51.9489339273" lon="-2.2266784776"><ele>16.48</ele><time>2011-10-26T09:09:06Z</time></trkpt><trkpt lat="51.9489339273" lon="-2.2266784776"><ele>16.48</ele><time>2011-10-26T09:09:21Z</time></trkpt><trkpt lat="51.9489142299" lon="-2.2266278509"><ele>16.48</ele><time>2011-10-26T09:09:31Z</time></trkpt><trkpt lat="51.9489041716" lon="-2.2265785653"><ele>16.48</ele><time>2011-10-26T09:09:34Z</time></trkpt><trkpt lat="51.9488926884" lon="-2.2265100013"><ele>16.48</ele><time>2011-10-26T09:09:40Z</time></trkpt><trkpt lat="51.9488926884" lon="-2.2265100013"><ele>16.48</ele><time>2011-10-26T09:09:50Z</time></trkpt><trkpt lat="51.9488926884" lon="-2.2265100013"><ele>17.44</ele><time>2011-10-26T09:10:02Z</time></trkpt><trkpt lat="51.9489325862" lon="-2.2264833469"><ele>16.00</ele><time>2011-10-26T09:10:08Z</time></trkpt><trkpt lat="51.9489646889" lon="-2.2264473047"><ele>16.48</ele><time>2011-10-26T09:10:15Z</time></trkpt><trkpt lat="51.9489562232" lon="-2.2264197282"><ele>16.00</ele><time>2011-10-26T09:10:18Z</time></trkpt><trkpt lat="51.9489482604" lon="-2.2263725381"><ele>16.48</ele><time>2011-10-26T09:10:21Z</time></trkpt><trkpt lat="51.9489104580" lon="-2.2262313869"><ele>16.00</ele><time>2011-10-26T09:10:29Z</time></trkpt><trkpt lat="51.9488708116" lon="-2.2260935046"><ele>16.96</ele><time>2011-10-26T09:10:37Z</time></trkpt><trkpt lat="51.9488605857" lon="-2.2260342445"><ele>15.52</ele><time>2011-10-26T09:10:44Z</time></trkpt><trkpt lat="51.9488367811" lon="-2.2259386908"><ele>16.00</ele><time>2011-10-26T09:10:49Z</time></trkpt><trkpt lat="51.9487935305" lon="-2.2257550433"><ele>15.04</ele><time>2011-10-26T09:11:00Z</time></trkpt><trkpt lat="51.9487865735" lon="-2.2257239465"><ele>14.56</ele><time>2011-10-26T09:11:02Z</time></trkpt><trkpt lat="51.9487608410" lon="-2.2256108746"><ele>14.08</ele><time>2011-10-26T09:11:09Z</time></trkpt><trkpt lat="51.9487970509" lon="-2.2254765965"><ele>12.63</ele><time>2011-10-26T09:11:18Z</time></trkpt><trkpt lat="51.9488147367" lon="-2.2254415601"><ele>12.63</ele><time>2011-10-26T09:11:27Z</time></trkpt><trkpt lat="51.9488147367" lon="-2.2254415601"><ele>12.63</ele><time>2011-10-26T09:11:42Z</time></trkpt><trkpt lat="51.9488444086" lon="-2.2254190966"><ele>12.15</ele><time>2011-10-26T09:11:47Z</time></trkpt><trkpt lat="51.9489612523" lon="-2.2253662907"><ele>10.71</ele><time>2011-10-26T09:11:56Z</time></trkpt><trkpt lat="51.9491013978" lon="-2.2252458427"><ele>10.23</ele><time>2011-10-26T09:12:06Z</time></trkpt><trkpt lat="51.9491389487" lon="-2.2252129856"><ele>10.71</ele><time>2011-10-26T09:12:10Z</time></trkpt><trkpt lat="51.9491902459" lon="-2.2252059449"><ele>10.23</ele><time>2011-10-26T09:12:17Z</time></trkpt><trkpt lat="51.9491998851" lon="-2.2252003290"><ele>10.23</ele><time>2011-10-26T09:12:18Z</time></trkpt><trkpt lat="51.9493052457" lon="-2.2251707409"><ele>10.23</ele><time>2011-10-26T09:12:28Z</time></trkpt><trkpt lat="51.9493923336" lon="-2.2251190245"><ele>10.23</ele><time>2011-10-26T09:12:36Z</time></trkpt><trkpt lat="51.9494650047" lon="-2.2250906099"><ele>9.75</ele><time>2011-10-26T09:12:44Z</time></trkpt><trkpt lat="51.9494786672" lon="-2.2250803001"><ele>9.75</ele><time>2011-10-26T09:12:46Z</time></trkpt><trkpt lat="51.9494945090" lon="-2.2250793781"><ele>10.23</ele><time>2011-10-26T09:12:48Z</time></trkpt><trkpt lat="51.9495434593" lon="-2.2250618599"><ele>10.23</ele><time>2011-10-26T09:12:57Z</time></trkpt><trkpt lat="51.9496469758" lon="-2.2250029352"><ele>10.23</ele><time>2011-10-26T09:13:06Z</time></trkpt><trkpt lat="51.9497282803" lon="-2.2249325272"><ele>9.75</ele><time>2011-10-26T09:13:14Z</time></trkpt><trkpt lat="51.9497960061" lon="-2.2248763684"><ele>10.23</ele><time>2011-10-26T09:13:22Z</time></trkpt><trkpt lat="51.9498043042" lon="-2.2248710040"><ele>10.23</ele><time>2011-10-26T09:13:31Z</time></trkpt><trkpt lat="51.9498824235" lon="-2.2247879393"><ele>10.23</ele><time>2011-10-26T09:13:39Z</time></trkpt><trkpt lat="51.9499657396" lon="-2.2246881947"><ele>10.23</ele><time>2011-10-26T09:13:47Z</time></trkpt><trkpt lat="51.9500404224" lon="-2.2245777212"><ele>10.23</ele><time>2011-10-26T09:13:55Z</time></trkpt><trkpt lat="51.9501306955" lon="-2.2244707681"><ele>10.23</ele><time>2011-10-26T09:14:04Z</time></trkpt><trkpt lat="51.9501446933" lon="-2.2244256735"><ele>10.71</ele><time>2011-10-26T09:14:11Z</time></trkpt><trkpt lat="51.9502288476" lon="-2.2243118472"><ele>10.23</ele><time>2011-10-26T09:14:20Z</time></trkpt><trkpt lat="51.9502671529" lon="-2.2242484801"><ele>10.23</ele><time>2011-10-26T09:14:24Z</time></trkpt><trkpt lat="51.9503582641" lon="-2.2240817640"><ele>10.23</ele><time>2011-10-26T09:14:34Z</time></trkpt><trkpt lat="51.9504194520" lon="-2.2239731345"><ele>10.23</ele><time>2011-10-26T09:14:41Z</time></trkpt><trkpt lat="51.9504867587" lon="-2.2238357551"><ele>10.23</ele><time>2011-10-26T09:14:50Z</time></trkpt><trkpt lat="51.9505270757" lon="-2.2237412073"><ele>10.23</ele><time>2011-10-26T09:14:56Z</time></trkpt><trkpt lat="51.9505808037" lon="-2.2236122098"><ele>10.23</ele><time>2011-10-26T09:15:04Z</time></trkpt><trkpt lat="51.9506405666" lon="-2.2234728187"><ele>10.23</ele><time>2011-10-26T09:15:13Z</time></trkpt><trkpt lat="51.9507046044" lon="-2.2233112995"><ele>10.23</ele><time>2011-10-26T09:15:23Z</time></trkpt><trkpt lat="51.9507452566" lon="-2.2231688909"><ele>10.23</ele><time>2011-10-26T09:15:31Z</time></trkpt><trkpt lat="51.9507771078" lon="-2.2230284102"><ele>10.23</ele><time>2011-10-26T09:15:38Z</time></trkpt><trkpt lat="51.9507982302" lon="-2.2229063697"><ele>10.23</ele><time>2011-10-26T09:15:45Z</time></trkpt><trkpt lat="51.9508284889" lon="-2.2227746900"><ele>10.23</ele><time>2011-10-26T09:15:53Z</time></trkpt><trkpt lat="51.9508415647" lon="-2.2227245662"><ele>10.71</ele><time>2011-10-26T09:15:59Z</time></trkpt><trkpt lat="51.9508652855" lon="-2.2224848438"><ele>10.71</ele><time>2011-10-26T09:16:09Z</time></trkpt><trkpt lat="51.9508664589" lon="-2.2224300262"><ele>10.71</ele><time>2011-10-26T09:16:11Z</time></trkpt><trkpt lat="51.9508909341" lon="-2.2222734522"><ele>10.71</ele><time>2011-10-26T09:16:20Z</time></trkpt><trkpt lat="51.9508989807" lon="-2.2221083287"><ele>10.71</ele><time>2011-10-26T09:16:29Z</time></trkpt><trkpt lat="51.9508889224" lon="-2.2219346557"><ele>10.71</ele><time>2011-10-26T09:16:40Z</time></trkpt><trkpt lat="51.9508729968" lon="-2.2218161356"><ele>10.71</ele><time>2011-10-26T09:16:48Z</time></trkpt><trkpt lat="51.9508548081" lon="-2.2216767445"><ele>10.71</ele><time>2011-10-26T09:16:56Z</time></trkpt><trkpt lat="51.9508238789" lon="-2.2215388622"><ele>10.71</ele><time>2011-10-26T09:17:04Z</time></trkpt><trkpt lat="51.9508167543" lon="-2.2214890737"><ele>10.71</ele><time>2011-10-26T09:17:11Z</time></trkpt><trkpt lat="51.9508157484" lon="-2.2214630898"><ele>10.71</ele><time>2011-10-26T09:17:25Z</time></trkpt><trkpt lat="51.9507859088" lon="-2.2213508561"><ele>10.71</ele><time>2011-10-26T09:17:33Z</time></trkpt><trkpt lat="51.9507557340" lon="-2.2212435678"><ele>11.19</ele><time>2011-10-26T09:17:41Z</time></trkpt><trkpt lat="51.9507557340" lon="-2.2212435678"><ele>10.23</ele><time>2011-10-26T09:18:01Z</time></trkpt><trkpt lat="51.9507536385" lon="-2.2212295700"><ele>10.71</ele><time>2011-10-26T09:18:17Z</time></trkpt><trkpt lat="51.9507272355" lon="-2.2211223654"><ele>10.71</ele><time>2011-10-26T09:18:26Z</time></trkpt><trkpt lat="51.9507059455" lon="-2.2210491914"><ele>11.19</ele><time>2011-10-26T09:18:33Z</time></trkpt><trkpt lat="51.9507007487" lon="-2.2210282367"><ele>10.71</ele><time>2011-10-26T09:18:35Z</time></trkpt><trkpt lat="51.9506933726" lon="-2.2210019175"><ele>10.71</ele><time>2011-10-26T09:18:37Z</time></trkpt><trkpt lat="51.9506537262" lon="-2.2208971437"><ele>10.71</ele><time>2011-10-26T09:18:44Z</time></trkpt><trkpt lat="51.9506440032" lon="-2.2208476905"><ele>10.71</ele><time>2011-10-26T09:18:51Z</time></trkpt><trkpt lat="51.9506098051" lon="-2.2207405698"><ele>11.19</ele><time>2011-10-26T09:18:58Z</time></trkpt><trkpt lat="51.9505577534" lon="-2.2205943894"><ele>11.19</ele><time>2011-10-26T09:19:07Z</time></trkpt><trkpt lat="51.9505285006" lon="-2.2204703372"><ele>10.71</ele><time>2011-10-26T09:19:14Z</time></trkpt><trkpt lat="51.9505275786" lon="-2.2203244083"><ele>10.71</ele><time>2011-10-26T09:19:21Z</time></trkpt><trkpt lat="51.9505166821" lon="-2.2201434430"><ele>10.23</ele><time>2011-10-26T09:19:30Z</time></trkpt><trkpt lat="51.9504746888" lon="-2.2199759725"><ele>10.23</ele><time>2011-10-26T09:19:39Z</time></trkpt><trkpt lat="51.9504298456" lon="-2.2198673431"><ele>10.23</ele><time>2011-10-26T09:19:46Z</time></trkpt><trkpt lat="51.9504010119" lon="-2.2197416984"><ele>9.75</ele><time>2011-10-26T09:19:53Z</time></trkpt><trkpt lat="51.9503751956" lon="-2.2196643334"><ele>10.23</ele><time>2011-10-26T09:19:58Z</time></trkpt><trkpt lat="51.9503399916" lon="-2.2194844577"><ele>9.75</ele><time>2011-10-26T09:20:08Z</time></trkpt><trkpt lat="51.9503196236" lon="-2.2193407919"><ele>9.75</ele><time>2011-10-26T09:20:16Z</time></trkpt><trkpt lat="51.9502999261" lon="-2.2191789374"><ele>9.75</ele><time>2011-10-26T09:20:25Z</time></trkpt><trkpt lat="51.9502826594" lon="-2.2190349363"><ele>9.75</ele><time>2011-10-26T09:20:33Z</time></trkpt><trkpt lat="51.9502677396" lon="-2.2188931983"><ele>9.75</ele><time>2011-10-26T09:20:40Z</time></trkpt><trkpt lat="51.9502528198" lon="-2.2187450062"><ele>10.23</ele><time>2011-10-26T09:20:48Z</time></trkpt><trkpt lat="51.9502435997" lon="-2.2185727581"><ele>10.23</ele><time>2011-10-26T09:20:56Z</time></trkpt><trkpt lat="51.9502349664" lon="-2.2184006777"><ele>10.23</ele><time>2011-10-26T09:21:05Z</time></trkpt><trkpt lat="51.9502311945" lon="-2.2181933094"><ele>10.23</ele><time>2011-10-26T09:21:16Z</time></trkpt><trkpt lat="51.9502353016" lon="-2.2180066444"><ele>10.23</ele><time>2011-10-26T09:21:26Z</time></trkpt><trkpt lat="51.9502161909" lon="-2.2178829275"><ele>10.23</ele><time>2011-10-26T09:21:33Z</time></trkpt><trkpt lat="51.9502100721" lon="-2.2176859528"><ele>9.75</ele><time>2011-10-26T09:21:44Z</time></trkpt><trkpt lat="51.9501993433" lon="-2.2175329830"><ele>10.23</ele><time>2011-10-26T09:21:52Z</time></trkpt><trkpt lat="51.9501897041" lon="-2.2173606511"><ele>10.23</ele><time>2011-10-26T09:22:01Z</time></trkpt><trkpt lat="51.9501855131" lon="-2.2172701266"><ele>10.23</ele><time>2011-10-26T09:22:06Z</time></trkpt><trkpt lat="51.9501733594" lon="-2.2171086073"><ele>10.71</ele><time>2011-10-26T09:22:15Z</time></trkpt><trkpt lat="51.9501670729" lon="-2.2169273905"><ele>10.71</ele><time>2011-10-26T09:22:25Z</time></trkpt><trkpt lat="51.9501863513" lon="-2.2167579085"><ele>10.71</ele><time>2011-10-26T09:22:34Z</time></trkpt><trkpt lat="51.9502231479" lon="-2.2166430764"><ele>10.71</ele><time>2011-10-26T09:22:41Z</time></trkpt><trkpt lat="51.9502760377" lon="-2.2165140789"><ele>10.71</ele><time>2011-10-26T09:22:49Z</time></trkpt><trkpt lat="51.9503189530" lon="-2.2164207883"><ele>10.71</ele><time>2011-10-26T09:22:55Z</time></trkpt><trkpt lat="51.9503780454" lon="-2.2162476182"><ele>11.19</ele><time>2011-10-26T09:23:05Z</time></trkpt><trkpt lat="51.9504401553" lon="-2.2161001805"><ele>11.19</ele><time>2011-10-26T09:23:14Z</time></trkpt><trkpt lat="51.9505015947" lon="-2.2159586940"><ele>11.19</ele><time>2011-10-26T09:23:23Z</time></trkpt><trkpt lat="51.9505528081" lon="-2.2158339713"><ele>10.71</ele><time>2011-10-26T09:23:31Z</time></trkpt><trkpt lat="51.9506050274" lon="-2.2157050576"><ele>11.19</ele><time>2011-10-26T09:23:39Z</time></trkpt><trkpt lat="51.9506644551" lon="-2.2155637387"><ele>11.19</ele><time>2011-10-26T09:23:48Z</time></trkpt><trkpt lat="51.9507310074" lon="-2.2154043987"><ele>11.19</ele><time>2011-10-26T09:23:57Z</time></trkpt><trkpt lat="51.9507924467" lon="-2.2152568772"><ele>11.19</ele><time>2011-10-26T09:24:06Z</time></trkpt><trkpt lat="51.9508170057" lon="-2.2152189072"><ele>11.19</ele><time>2011-10-26T09:24:09Z</time></trkpt><trkpt lat="51.9508833904" lon="-2.2150871437"><ele>10.71</ele><time>2011-10-26T09:24:18Z</time></trkpt><trkpt lat="51.9509667903" lon="-2.2149469145"><ele>11.19</ele><time>2011-10-26T09:24:28Z</time></trkpt><trkpt lat="51.9510449935" lon="-2.2148045897"><ele>10.71</ele><time>2011-10-26T09:24:37Z</time></trkpt><trkpt lat="51.9511188380" lon="-2.2146993130"><ele>11.19</ele><time>2011-10-26T09:24:45Z</time></trkpt><trkpt lat="51.9511796907" lon="-2.2145826370"><ele>11.19</ele><time>2011-10-26T09:24:52Z</time></trkpt><trkpt lat="51.9512742385" lon="-2.2144410666"><ele>11.19</ele><time>2011-10-26T09:25:02Z</time></trkpt><trkpt lat="51.9513552077" lon="-2.2143345326"><ele>11.19</ele><time>2011-10-26T09:25:10Z</time></trkpt><trkpt lat="51.9514332432" lon="-2.2142065410"><ele>11.19</ele><time>2011-10-26T09:25:19Z</time></trkpt><trkpt lat="51.9515030645" lon="-2.2141123284"><ele>11.19</ele><time>2011-10-26T09:25:27Z</time></trkpt><trkpt lat="51.9515739754" lon="-2.2140309401"><ele>11.67</ele><time>2011-10-26T09:25:35Z</time></trkpt><trkpt lat="51.9516800903" lon="-2.2138948180"><ele>11.19</ele><time>2011-10-26T09:25:46Z</time></trkpt><trkpt lat="51.9517628197" lon="-2.2137978394"><ele>11.19</ele><time>2011-10-26T09:25:54Z</time></trkpt><trkpt lat="51.9518677611" lon="-2.2136882041"><ele>11.19</ele><time>2011-10-26T09:26:05Z</time></trkpt><trkpt lat="51.9519752171" lon="-2.2135679238"><ele>11.19</ele><time>2011-10-26T09:26:16Z</time></trkpt><trkpt lat="51.9520538393" lon="-2.2134918161"><ele>11.19</ele><time>2011-10-26T09:26:24Z</time></trkpt><trkpt lat="51.9521742873" lon="-2.2133647464"><ele>11.19</ele><time>2011-10-26T09:26:35Z</time></trkpt><trkpt lat="51.9522740319" lon="-2.2132880520"><ele>11.19</ele><time>2011-10-26T09:26:44Z</time></trkpt><trkpt lat="51.9523795601" lon="-2.2132023890"><ele>11.19</ele><time>2011-10-26T09:26:54Z</time></trkpt><trkpt lat="51.9524819031" lon="-2.2131061647"><ele>11.19</ele><time>2011-10-26T09:27:04Z</time></trkpt><trkpt lat="51.9525701646" lon="-2.2130396124"><ele>11.19</ele><time>2011-10-26T09:27:12Z</time></trkpt><trkpt lat="51.9526591804" lon="-2.2129721381"><ele>11.19</ele><time>2011-10-26T09:27:21Z</time></trkpt><trkpt lat="51.9527292531" lon="-2.2129316535"><ele>11.67</ele><time>2011-10-26T09:27:29Z</time></trkpt><trkpt lat="51.9527401496" lon="-2.2129266243"><ele>11.67</ele><time>2011-10-26T09:27:37Z</time></trkpt><trkpt lat="51.9527572487" lon="-2.2129122075"><ele>11.19</ele><time>2011-10-26T09:27:43Z</time></trkpt><trkpt lat="51.9527772814" lon="-2.2128909174"><ele>11.67</ele><time>2011-10-26T09:27:45Z</time></trkpt><trkpt lat="51.9528905209" lon="-2.2128319088"><ele>11.67</ele><time>2011-10-26T09:27:54Z</time></trkpt><trkpt lat="51.9529865775" lon="-2.2128321603"><ele>11.19</ele><time>2011-10-26T09:28:03Z</time></trkpt><trkpt lat="51.9530266430" lon="-2.2128018178"><ele>11.19</ele><time>2011-10-26T09:28:11Z</time></trkpt><trkpt lat="51.9530905969" lon="-2.2127664462"><ele>11.19</ele><time>2011-10-26T09:28:20Z</time></trkpt><trkpt lat="51.9531511143" lon="-2.2126912605"><ele>11.19</ele><time>2011-10-26T09:28:28Z</time></trkpt><trkpt lat="51.9531961251" lon="-2.2126061842"><ele>11.67</ele><time>2011-10-26T09:28:35Z</time></trkpt><trkpt lat="51.9532541279" lon="-2.2125543002"><ele>11.67</ele><time>2011-10-26T09:28:42Z</time></trkpt><trkpt lat="51.9533165731" lon="-2.2125421464"><ele>11.67</ele><time>2011-10-26T09:28:49Z</time></trkpt><trkpt lat="51.9533666968" lon="-2.2124993149"><ele>11.19</ele><time>2011-10-26T09:28:54Z</time></trkpt><trkpt lat="51.9533901662" lon="-2.2124287393"><ele>11.19</ele><time>2011-10-26T09:29:02Z</time></trkpt><trkpt lat="51.9533679541" lon="-2.2123377956"><ele>10.23</ele><time>2011-10-26T09:29:09Z</time></trkpt><trkpt lat="51.9533374440" lon="-2.2121642902"><ele>9.75</ele><time>2011-10-26T09:29:19Z</time></trkpt><trkpt lat="51.9533255417" lon="-2.2119979933"><ele>10.23</ele><time>2011-10-26T09:29:28Z</time></trkpt><trkpt lat="51.9533269666" lon="-2.2119418345"><ele>10.23</ele><time>2011-10-26T09:29:33Z</time></trkpt><trkpt lat="51.9533605780" lon="-2.2117988393"><ele>9.75</ele><time>2011-10-26T09:29:41Z</time></trkpt><trkpt lat="51.9533998054" lon="-2.2116922215"><ele>10.23</ele><time>2011-10-26T09:29:49Z</time></trkpt><trkpt lat="51.9534072652" lon="-2.2116747033"><ele>9.75</ele><time>2011-10-26T09:29:51Z</time></trkpt><trkpt lat="51.9534247834" lon="-2.2116451990"><ele>9.75</ele><time>2011-10-26T09:29:53Z</time></trkpt><trkpt lat="51.9535152242" lon="-2.2115412634"><ele>10.23</ele><time>2011-10-26T09:30:03Z</time></trkpt><trkpt lat="51.9536155555" lon="-2.2114230786"><ele>10.23</ele><time>2011-10-26T09:30:13Z</time></trkpt><trkpt lat="51.9536975306" lon="-2.2113220766"><ele>10.71</ele><time>2011-10-26T09:30:21Z</time></trkpt><trkpt lat="51.9537790865" lon="-2.2112384252"><ele>10.23</ele><time>2011-10-26T09:30:29Z</time></trkpt><trkpt lat="51.9538499136" lon="-2.2111729626"><ele>10.71</ele><time>2011-10-26T09:30:37Z</time></trkpt><trkpt lat="51.9539418630" lon="-2.2110820189"><ele>10.23</ele><time>2011-10-26T09:30:46Z</time></trkpt><trkpt lat="51.9540100079" lon="-2.2110168915"><ele>10.71</ele><time>2011-10-26T09:30:54Z</time></trkpt><trkpt lat="51.9540871214" lon="-2.2109367605"><ele>10.23</ele><time>2011-10-26T09:31:03Z</time></trkpt><trkpt lat="51.9541758858" lon="-2.2108412068"><ele>9.75</ele><time>2011-10-26T09:31:12Z</time></trkpt><trkpt lat="51.9542506523" lon="-2.2107697092"><ele>10.23</ele><time>2011-10-26T09:31:20Z</time></trkpt><trkpt lat="51.9543553423" lon="-2.2106941883"><ele>10.23</ele><time>2011-10-26T09:31:29Z</time></trkpt><trkpt lat="51.9544532429" lon="-2.2106159013"><ele>9.75</ele><time>2011-10-26T09:31:38Z</time></trkpt><trkpt lat="51.9545358047" lon="-2.2105550487"><ele>9.75</ele><time>2011-10-26T09:31:46Z</time></trkpt><trkpt lat="51.9546284247" lon="-2.2104943637"><ele>9.75</ele><time>2011-10-26T09:31:55Z</time></trkpt><trkpt lat="51.9547423348" lon="-2.2104304098"><ele>9.75</ele><time>2011-10-26T09:32:05Z</time></trkpt><trkpt lat="51.9548209570" lon="-2.2103750892"><ele>9.75</ele><time>2011-10-26T09:32:13Z</time></trkpt><trkpt lat="51.9549181033" lon="-2.2103168350"><ele>10.23</ele><time>2011-10-26T09:32:23Z</time></trkpt><trkpt lat="51.9550060295" lon="-2.2102642804"><ele>10.23</ele><time>2011-10-26T09:32:32Z</time></trkpt><trkpt lat="51.9551013317" lon="-2.2102084570"><ele>9.75</ele><time>2011-10-26T09:32:42Z</time></trkpt><trkpt lat="51.9552042615" lon="-2.2101356182"><ele>9.75</ele><time>2011-10-26T09:32:51Z</time></trkpt><trkpt lat="51.9552869070" lon="-2.2100983188"><ele>9.75</ele><time>2011-10-26T09:32:59Z</time></trkpt><trkpt lat="51.9553846400" lon="-2.2100347839"><ele>9.27</ele><time>2011-10-26T09:33:09Z</time></trkpt><trkpt lat="51.9554683752" lon="-2.2099786252"><ele>9.75</ele><time>2011-10-26T09:33:18Z</time></trkpt><trkpt lat="51.9555506855" lon="-2.2099205386"><ele>9.75</ele><time>2011-10-26T09:33:27Z</time></trkpt><trkpt lat="51.9556366000" lon="-2.2098647151"><ele>9.75</ele><time>2011-10-26T09:33:36Z</time></trkpt><trkpt lat="51.9557480793" lon="-2.2098038625"><ele>9.75</ele><time>2011-10-26T09:33:46Z</time></trkpt><trkpt lat="51.9558396935" lon="-2.2097533196"><ele>9.75</ele><time>2011-10-26T09:33:54Z</time></trkpt><trkpt lat="51.9559327327" lon="-2.2096926346"><ele>9.75</ele><time>2011-10-26T09:34:03Z</time></trkpt><trkpt lat="51.9560441282" lon="-2.2096233163"><ele>9.75</ele><time>2011-10-26T09:34:13Z</time></trkpt><trkpt lat="51.9561529253" lon="-2.2095566802"><ele>9.27</ele><time>2011-10-26T09:34:23Z</time></trkpt><trkpt lat="51.9562295359" lon="-2.2095156088"><ele>9.75</ele><time>2011-10-26T09:34:32Z</time></trkpt><trkpt lat="51.9563404284" lon="-2.2094524093"><ele>9.75</ele><time>2011-10-26T09:34:43Z</time></trkpt><trkpt lat="51.9563751295" lon="-2.2094247490"><ele>9.75</ele><time>2011-10-26T09:34:49Z</time></trkpt><trkpt lat="51.9564607088" lon="-2.2093812469"><ele>9.75</ele><time>2011-10-26T09:34:58Z</time></trkpt><trkpt lat="51.9565349724" lon="-2.2093448695"><ele>9.75</ele><time>2011-10-26T09:35:07Z</time></trkpt><trkpt lat="51.9566249102" lon="-2.2093004454"><ele>10.23</ele><time>2011-10-26T09:35:18Z</time></trkpt><trkpt lat="51.9567041192" lon="-2.2092375811"><ele>9.75</ele><time>2011-10-26T09:35:28Z</time></trkpt><trkpt lat="51.9568222202" lon="-2.2091532592"><ele>9.75</ele><time>2011-10-26T09:35:39Z</time></trkpt><trkpt lat="51.9569161814" lon="-2.2090797499"><ele>9.75</ele><time>2011-10-26T09:35:48Z</time></trkpt><trkpt lat="51.9570355397" lon="-2.2089893091"><ele>9.75</ele><time>2011-10-26T09:35:59Z</time></trkpt><trkpt lat="51.9571053609" lon="-2.2089337371"><ele>9.75</ele><time>2011-10-26T09:36:08Z</time></trkpt><trkpt lat="51.9571880903" lon="-2.2088790871"><ele>9.27</ele><time>2011-10-26T09:36:17Z</time></trkpt><trkpt lat="51.9572706521" lon="-2.2088015545"><ele>9.27</ele><time>2011-10-26T09:36:28Z</time></trkpt><trkpt lat="51.9573191833" lon="-2.2087247763"><ele>9.27</ele><time>2011-10-26T09:36:36Z</time></trkpt><trkpt lat="51.9573911838" lon="-2.2085987125"><ele>9.75</ele><time>2011-10-26T09:36:45Z</time></trkpt><trkpt lat="51.9574128091" lon="-2.2085378598"><ele>9.75</ele><time>2011-10-26T09:36:48Z</time></trkpt><trkpt lat="51.9574492704" lon="-2.2083571460"><ele>9.27</ele><time>2011-10-26T09:36:56Z</time></trkpt><trkpt lat="51.9574356917" lon="-2.2082139831"><ele>9.75</ele><time>2011-10-26T09:37:04Z</time></trkpt><trkpt lat="51.9574061036" lon="-2.2080192715"><ele>9.75</ele><time>2011-10-26T09:37:14Z</time></trkpt><trkpt lat="51.9573891722" lon="-2.2078363784"><ele>9.75</ele><time>2011-10-26T09:37:24Z</time></trkpt><trkpt lat="51.9573786948" lon="-2.2076707520"><ele>9.75</ele><time>2011-10-26T09:37:32Z</time></trkpt><trkpt lat="51.9573646970" lon="-2.2076207120"><ele>9.27</ele><time>2011-10-26T09:37:35Z</time></trkpt><trkpt lat="51.9573603384" lon="-2.2075396590"><ele>9.27</ele><time>2011-10-26T09:37:45Z</time></trkpt><trkpt lat="51.9573890883" lon="-2.2074895352"><ele>9.27</ele><time>2011-10-26T09:37:53Z</time></trkpt><trkpt lat="51.9574572332" lon="-2.2074298561"><ele>9.27</ele><time>2011-10-26T09:38:01Z</time></trkpt><trkpt lat="51.9575410523" lon="-2.2074118350"><ele>9.27</ele><time>2011-10-26T09:38:12Z</time></trkpt><trkpt lat="51.9576038327" lon="-2.2073900420"><ele>8.31</ele><time>2011-10-26T09:38:22Z</time></trkpt><trkpt lat="51.9576300681" lon="-2.2073770501"><ele>9.27</ele><time>2011-10-26T09:38:32Z</time></trkpt><trkpt lat="51.9576683734" lon="-2.2073576879"><ele>8.79</ele><time>2011-10-26T09:38:40Z</time></trkpt><trkpt lat="51.9577968679" lon="-2.2072687559"><ele>8.79</ele><time>2011-10-26T09:38:49Z</time></trkpt><trkpt lat="51.9578920864" lon="-2.2071814165"><ele>8.79</ele><time>2011-10-26T09:38:58Z</time></trkpt><trkpt lat="51.9580440503" lon="-2.2070407681"><ele>8.79</ele><time>2011-10-26T09:39:08Z</time></trkpt><trkpt lat="51.9581890572" lon="-2.2068951745"><ele>8.79</ele><time>2011-10-26T09:39:20Z</time></trkpt><trkpt lat="51.9582421146" lon="-2.2068052366"><ele>8.31</ele><time>2011-10-26T09:39:26Z</time></trkpt><trkpt lat="51.9582587946" lon="-2.2067817673"><ele>8.31</ele><time>2011-10-26T09:39:28Z</time></trkpt><trkpt lat="51.9582857005" lon="-2.2067538556"><ele>8.79</ele><time>2011-10-26T09:39:31Z</time></trkpt><trkpt lat="51.9583805837" lon="-2.2066370957"><ele>8.31</ele><time>2011-10-26T09:39:42Z</time></trkpt><trkpt lat="51.9584653247" lon="-2.2065244429"><ele>8.31</ele><time>2011-10-26T09:39:53Z</time></trkpt><trkpt lat="51.9585458748" lon="-2.2064110357"><ele>8.31</ele><time>2011-10-26T09:40:04Z</time></trkpt><trkpt lat="51.9585486408" lon="-2.2064010613"><ele>8.79</ele><time>2011-10-26T09:40:13Z</time></trkpt><trkpt lat="51.9586672448" lon="-2.2062767576"><ele>8.31</ele><time>2011-10-26T09:40:24Z</time></trkpt><trkpt lat="51.9587218110" lon="-2.2061914299"><ele>8.31</ele><time>2011-10-26T09:40:32Z</time></trkpt><trkpt lat="51.9587560929" lon="-2.2060649469"><ele>7.83</ele><time>2011-10-26T09:40:40Z</time></trkpt><trkpt lat="51.9587672409" lon="-2.2060551401"><ele>8.31</ele><time>2011-10-26T09:40:49Z</time></trkpt><trkpt lat="51.9587923866" lon="-2.2060276475"><ele>8.31</ele><time>2011-10-26T09:40:59Z</time></trkpt><trkpt lat="51.9588013552" lon="-2.2060165834"><ele>8.31</ele><time>2011-10-26T09:41:08Z</time></trkpt><trkpt lat="51.9589130860" lon="-2.2058711573"><ele>8.31</ele><time>2011-10-26T09:41:19Z</time></trkpt><trkpt lat="51.9589328673" lon="-2.2058541421"><ele>0.14</ele><time>2011-10-26T09:41:23Z</time></trkpt><trkpt lat="51.9589328673" lon="-2.2058541421"><ele>9.75</ele><time>2011-10-26T09:41:24Z</time></trkpt><trkpt lat="51.9589682389" lon="-2.2058123164"><ele>8.31</ele><time>2011-10-26T09:41:33Z</time></trkpt><trkpt lat="51.9590434246" lon="-2.2056979872"><ele>8.31</ele><time>2011-10-26T09:41:40Z</time></trkpt><trkpt lat="51.9590979069" lon="-2.2056459356"><ele>8.79</ele><time>2011-10-26T09:41:50Z</time></trkpt><trkpt lat="51.9591517188" lon="-2.2055408265"><ele>8.79</ele><time>2011-10-26T09:41:58Z</time></trkpt><trkpt lat="51.9592327718" lon="-2.2054427583"><ele>8.31</ele><time>2011-10-26T09:42:07Z</time></trkpt><trkpt lat="51.9593028445" lon="-2.2054034472"><ele>7.83</ele><time>2011-10-26T09:42:17Z</time></trkpt><trkpt lat="51.9593872502" lon="-2.2052881122"><ele>7.35</ele><time>2011-10-26T09:42:26Z</time></trkpt><trkpt lat="51.9594568200" lon="-2.2052070592"><ele>7.83</ele><time>2011-10-26T09:42:35Z</time></trkpt><trkpt lat="51.9595012441" lon="-2.2052006051"><ele>7.83</ele><time>2011-10-26T09:42:42Z</time></trkpt><trkpt lat="51.9595362805" lon="-2.2051920556"><ele>7.83</ele><time>2011-10-26T09:42:52Z</time></trkpt><trkpt lat="51.9595491048" lon="-2.2051876970"><ele>7.83</ele><time>2011-10-26T09:42:53Z</time></trkpt><trkpt lat="51.9596421439" lon="-2.2051361483"><ele>7.35</ele><time>2011-10-26T09:43:01Z</time></trkpt><trkpt lat="51.9597463310" lon="-2.2050881200"><ele>6.87</ele><time>2011-10-26T09:43:11Z</time></trkpt><trkpt lat="51.9597931020" lon="-2.2049938235"><ele>7.35</ele><time>2011-10-26T09:43:19Z</time></trkpt><trkpt lat="51.9598079380" lon="-2.2048449609"><ele>7.35</ele><time>2011-10-26T09:43:29Z</time></trkpt><trkpt lat="51.9598434772" lon="-2.2046848666"><ele>7.35</ele><time>2011-10-26T09:43:40Z</time></trkpt><trkpt lat="51.9599016476" lon="-2.2045557015"><ele>7.35</ele><time>2011-10-26T09:43:52Z</time></trkpt><trkpt lat="51.9599692058" lon="-2.2044199146"><ele>7.35</ele><time>2011-10-26T09:44:03Z</time></trkpt><trkpt lat="51.9599953573" lon="-2.2043665219"><ele>7.35</ele><time>2011-10-26T09:44:12Z</time></trkpt><trkpt lat="51.9599953573" lon="-2.2043665219"><ele>6.87</ele><time>2011-10-26T09:44:26Z</time></trkpt><trkpt lat="51.9599953573" lon="-2.2043665219"><ele>7.35</ele><time>2011-10-26T09:44:44Z</time></trkpt><trkpt lat="51.9600076787" lon="-2.2043439746"><ele>6.87</ele><time>2011-10-26T09:44:55Z</time></trkpt><trkpt lat="51.9600076787" lon="-2.2043439746"><ele>7.35</ele><time>2011-10-26T09:45:17Z</time></trkpt><trkpt lat="51.9600076787" lon="-2.2043439746"><ele>6.87</ele><time>2011-10-26T09:45:27Z</time></trkpt><trkpt lat="51.9600342494" lon="-2.2042925935"><ele>7.35</ele><time>2011-10-26T09:45:39Z</time></trkpt><trkpt lat="51.9600933418" lon="-2.2041580640"><ele>6.87</ele><time>2011-10-26T09:45:50Z</time></trkpt><trkpt lat="51.9601364248" lon="-2.2040503565"><ele>7.35</ele><time>2011-10-26T09:45:58Z</time></trkpt><trkpt lat="51.9602179807" lon="-2.2038765997"><ele>7.35</ele><time>2011-10-26T09:46:10Z</time></trkpt><trkpt lat="51.9602614827" lon="-2.2037839796"><ele>7.35</ele><time>2011-10-26T09:46:19Z</time></trkpt><trkpt lat="51.9603372552" lon="-2.2036597598"><ele>7.35</ele><time>2011-10-26T09:46:28Z</time></trkpt><trkpt lat="51.9603720400" lon="-2.2035800479"><ele>7.35</ele><time>2011-10-26T09:46:36Z</time></trkpt><trkpt lat="51.9604052324" lon="-2.2035174351"><ele>7.35</ele><time>2011-10-26T09:46:47Z</time></trkpt><trkpt lat="51.9604363292" lon="-2.2034511343"><ele>7.35</ele><time>2011-10-26T09:46:57Z</time></trkpt><trkpt lat="51.9604743831" lon="-2.2033035289"><ele>7.83</ele><time>2011-10-26T09:47:05Z</time></trkpt><trkpt lat="51.9604846928" lon="-2.2032503877"><ele>7.83</ele><time>2011-10-26T09:47:13Z</time></trkpt><trkpt lat="51.9604846928" lon="-2.2032503877"><ele>8.31</ele><time>2011-10-26T09:47:23Z</time></trkpt><trkpt lat="51.9604887161" lon="-2.2032271698"><ele>8.79</ele><time>2011-10-26T09:47:34Z</time></trkpt><trkpt lat="51.9604887161" lon="-2.2032271698"><ele>9.27</ele><time>2011-10-26T09:47:42Z</time></trkpt><trkpt lat="51.9604892191" lon="-2.2031731904"><ele>9.75</ele><time>2011-10-26T09:47:52Z</time></trkpt><trkpt lat="51.9604892191" lon="-2.2031731904"><ele>9.75</ele><time>2011-10-26T09:48:02Z</time></trkpt><trkpt lat="51.9604892191" lon="-2.2031731904"><ele>10.23</ele><time>2011-10-26T09:48:18Z</time></trkpt><trkpt lat="51.9604839385" lon="-2.2031679936"><ele>9.75</ele><time>2011-10-26T09:48:27Z</time></trkpt><trkpt lat="51.9604839385" lon="-2.2031679936"><ele>9.75</ele><time>2011-10-26T09:48:45Z</time></trkpt><trkpt lat="51.9604839385" lon="-2.2031679936"><ele>11.19</ele><time>2011-10-26T09:48:57Z</time></trkpt><trkpt lat="51.9604833517" lon="-2.2031665687"><ele>10.71</ele><time>2011-10-26T09:49:05Z</time></trkpt><trkpt lat="51.9604779035" lon="-2.2030033730"><ele>11.19</ele><time>2011-10-26T09:49:15Z</time></trkpt><trkpt lat="51.9604090881" lon="-2.2028207313"><ele>12.15</ele><time>2011-10-26T09:49:27Z</time></trkpt><trkpt lat="51.9604095910" lon="-2.2027210705"><ele>13.12</ele><time>2011-10-26T09:49:38Z</time></trkpt><trkpt lat="51.9603991974" lon="-2.2026062384"><ele>14.08</ele><time>2011-10-26T09:49:48Z</time></trkpt><trkpt lat="51.9604033045" lon="-2.2025781590"><ele>15.04</ele><time>2011-10-26T09:49:56Z</time></trkpt><trkpt lat="51.9604085013" lon="-2.2024836950"><ele>16.48</ele><time>2011-10-26T09:50:08Z</time></trkpt><trkpt lat="51.9604496565" lon="-2.2023554519"><ele>17.92</ele><time>2011-10-26T09:50:18Z</time></trkpt><trkpt lat="51.9604588766" lon="-2.2023028135"><ele>18.40</ele><time>2011-10-26T09:50:31Z</time></trkpt><trkpt lat="51.9604588766" lon="-2.2023028135"><ele>18.40</ele><time>2011-10-26T09:50:47Z</time></trkpt><trkpt lat="51.9604586251" lon="-2.2022971977"><ele>18.88</ele><time>2011-10-26T09:51:03Z</time></trkpt><trkpt lat="51.9604705274" lon="-2.2022689506"><ele>18.88</ele><time>2011-10-26T09:51:13Z</time></trkpt><trkpt lat="51.9604799151" lon="-2.2022268735"><ele>19.84</ele><time>2011-10-26T09:51:22Z</time></trkpt><trkpt lat="51.9604866207" lon="-2.2020191699"><ele>20.81</ele><time>2011-10-26T09:51:31Z</time></trkpt><trkpt lat="51.9605117664" lon="-2.2019340936"><ele>21.29</ele><time>2011-10-26T09:51:39Z</time></trkpt><trkpt lat="51.9605117664" lon="-2.2019340936"><ele>21.77</ele><time>2011-10-26T09:51:50Z</time></trkpt><trkpt lat="51.9605117664" lon="-2.2019340936"><ele>21.29</ele><time>2011-10-26T09:52:00Z</time></trkpt><trkpt lat="51.9605117664" lon="-2.2019340936"><ele>21.29</ele><time>2011-10-26T09:52:14Z</time></trkpt><trkpt lat="51.9605141133" lon="-2.2019273043"><ele>21.77</ele><time>2011-10-26T09:52:22Z</time></trkpt><trkpt lat="51.9605225790" lon="-2.2019142285"><ele>21.77</ele><time>2011-10-26T09:52:26Z</time></trkpt><trkpt lat="51.9605839346" lon="-2.2017451655"><ele>21.77</ele><time>2011-10-26T09:52:34Z</time></trkpt><trkpt lat="51.9606308732" lon="-2.2015895974"><ele>22.73</ele><time>2011-10-26T09:52:42Z</time></trkpt><trkpt lat="51.9606542587" lon="-2.2014662996"><ele>23.21</ele><time>2011-10-26T09:52:49Z</time></trkpt><trkpt lat="51.9606597908" lon="-2.2014455963"><ele>23.21</ele><time>2011-10-26T09:52:50Z</time></trkpt><trkpt lat="51.9606778119" lon="-2.2012513038"><ele>24.17</ele><time>2011-10-26T09:53:00Z</time></trkpt><trkpt lat="51.9606920611" lon="-2.2011278383"><ele>24.65</ele><time>2011-10-26T09:53:08Z</time></trkpt><trkpt lat="51.9606991857" lon="-2.2009774670"><ele>25.13</ele><time>2011-10-26T09:53:18Z</time></trkpt><trkpt lat="51.9606990181" lon="-2.2008778062"><ele>26.09</ele><time>2011-10-26T09:53:27Z</time></trkpt><trkpt lat="51.9607024547" lon="-2.2007905506"><ele>26.57</ele><time>2011-10-26T09:53:35Z</time></trkpt><trkpt lat="51.9607012812" lon="-2.2007716913"><ele>26.57</ele><time>2011-10-26T09:53:47Z</time></trkpt><trkpt lat="51.9607091602" lon="-2.2006831784"><ele>26.57</ele><time>2011-10-26T09:53:55Z</time></trkpt><trkpt lat="51.9607115909" lon="-2.2006665822"><ele>27.05</ele><time>2011-10-26T09:53:57Z</time></trkpt><trkpt lat="51.9607187156" lon="-2.2005499899"><ele>27.05</ele><time>2011-10-26T09:54:06Z</time></trkpt><trkpt lat="51.9607418496" lon="-2.2004242614"><ele>27.05</ele><time>2011-10-26T09:54:14Z</time></trkpt><trkpt lat="51.9607780594" lon="-2.2003214993"><ele>27.05</ele><time>2011-10-26T09:54:23Z</time></trkpt><trkpt lat="51.9607817475" lon="-2.2003076691"><ele>27.05</ele><time>2011-10-26T09:54:24Z</time></trkpt><trkpt lat="51.9607854355" lon="-2.2002072539"><ele>27.05</ele><time>2011-10-26T09:54:33Z</time></trkpt><trkpt lat="51.9607854355" lon="-2.2002072539"><ele>27.05</ele><time>2011-10-26T09:54:42Z</time></trkpt><trkpt lat="51.9607901294" lon="-2.2001913283"><ele>27.05</ele><time>2011-10-26T09:54:55Z</time></trkpt><trkpt lat="51.9608015288" lon="-2.2001411207"><ele>26.57</ele><time>2011-10-26T09:54:58Z</time></trkpt><trkpt lat="51.9608375710" lon="-2.1999972872"><ele>25.61</ele><time>2011-10-26T09:55:07Z</time></trkpt><trkpt lat="51.9608582743" lon="-2.1998922620"><ele>24.65</ele><time>2011-10-26T09:55:14Z</time></trkpt><trkpt lat="51.9608647283" lon="-2.1998434793"><ele>24.17</ele><time>2011-10-26T09:55:17Z</time></trkpt><trkpt lat="51.9608912151" lon="-2.1997215226"><ele>22.25</ele><time>2011-10-26T09:55:25Z</time></trkpt><trkpt lat="51.9609085657" lon="-2.1996097919"><ele>21.29</ele><time>2011-10-26T09:55:32Z</time></trkpt><trkpt lat="51.9609273411" lon="-2.1995313372"><ele>20.32</ele><time>2011-10-26T09:55:38Z</time></trkpt><trkpt lat="51.9609685801" lon="-2.1994289942"><ele>18.40</ele><time>2011-10-26T09:55:47Z</time></trkpt><trkpt lat="51.9610017724" lon="-2.1993175149"><ele>16.96</ele><time>2011-10-26T09:55:55Z</time></trkpt><trkpt lat="51.9610286783" lon="-2.1992055327"><ele>16.00</ele><time>2011-10-26T09:56:03Z</time></trkpt><trkpt lat="51.9610663969" lon="-2.1990795527"><ele>14.56</ele><time>2011-10-26T09:56:12Z</time></trkpt><trkpt lat="51.9610829931" lon="-2.1990026906"><ele>14.08</ele><time>2011-10-26T09:56:18Z</time></trkpt><trkpt lat="51.9611151796" lon="-2.1988990065"><ele>13.60</ele><time>2011-10-26T09:56:25Z</time></trkpt><trkpt lat="51.9611499645" lon="-2.1988000162"><ele>12.15</ele><time>2011-10-26T09:56:33Z</time></trkpt><trkpt lat="51.9611876830" lon="-2.1987064742"><ele>12.15</ele><time>2011-10-26T09:56:41Z</time></trkpt><trkpt lat="51.9612356275" lon="-2.1986104175"><ele>12.15</ele><time>2011-10-26T09:56:49Z</time></trkpt><trkpt lat="51.9612849969" lon="-2.1985301189"><ele>11.67</ele><time>2011-10-26T09:56:56Z</time></trkpt><trkpt lat="51.9612950552" lon="-2.1985009499"><ele>11.19</ele><time>2011-10-26T09:56:58Z</time></trkpt><trkpt lat="51.9613563269" lon="-2.1983718686"><ele>11.19</ele><time>2011-10-26T09:57:08Z</time></trkpt><trkpt lat="51.9613610208" lon="-2.1982779074"><ele>10.71</ele><time>2011-10-26T09:57:15Z</time></trkpt><trkpt lat="51.9613576680" lon="-2.1982005425"><ele>10.71</ele><time>2011-10-26T09:57:23Z</time></trkpt><trkpt lat="51.9613702409" lon="-2.1981776599"><ele>11.19</ele><time>2011-10-26T09:57:30Z</time></trkpt><trkpt lat="51.9613855798" lon="-2.1981369238"><ele>10.71</ele><time>2011-10-26T09:57:35Z</time></trkpt><trkpt lat="51.9614261482" lon="-2.1980134584"><ele>10.71</ele><time>2011-10-26T09:57:43Z</time></trkpt><trkpt lat="51.9614862464" lon="-2.1978327446"><ele>10.23</ele><time>2011-10-26T09:57:53Z</time></trkpt><trkpt lat="51.9615301676" lon="-2.1977060940"><ele>10.23</ele><time>2011-10-26T09:58:01Z</time></trkpt><trkpt lat="51.9615668803" lon="-2.1975958720"><ele>9.75</ele><time>2011-10-26T09:58:08Z</time></trkpt><trkpt lat="51.9616018329" lon="-2.1974869911"><ele>9.75</ele><time>2011-10-26T09:58:15Z</time></trkpt><trkpt lat="51.9616517890" lon="-2.1973693091"><ele>9.27</ele><time>2011-10-26T09:58:23Z</time></trkpt><trkpt lat="51.9616707321" lon="-2.1973002423"><ele>9.75</ele><time>2011-10-26T09:58:30Z</time></trkpt><trkpt lat="51.9617278129" lon="-2.1971450094"><ele>9.75</ele><time>2011-10-26T09:58:40Z</time></trkpt><trkpt lat="51.9617342670" lon="-2.1971299220"><ele>9.27</ele><time>2011-10-26T09:58:41Z</time></trkpt><trkpt lat="51.9618076924" lon="-2.1970011760"><ele>9.27</ele><time>2011-10-26T09:58:51Z</time></trkpt><trkpt lat="51.9618658628" lon="-2.1968910377"><ele>9.27</ele><time>2011-10-26T09:58:59Z</time></trkpt><trkpt lat="51.9619384501" lon="-2.1967557538"><ele>10.23</ele><time>2011-10-26T09:59:09Z</time></trkpt><trkpt lat="51.9619801082" lon="-2.1966628823"><ele>10.23</ele><time>2011-10-26T09:59:16Z</time></trkpt><trkpt lat="51.9620274659" lon="-2.1965558454"><ele>10.23</ele><time>2011-10-26T09:59:24Z</time></trkpt><trkpt lat="51.9620852172" lon="-2.1964263450"><ele>10.23</ele><time>2011-10-26T09:59:33Z</time></trkpt><trkpt lat="51.9621420465" lon="-2.1962743811"><ele>10.23</ele><time>2011-10-26T09:59:43Z</time></trkpt><trkpt lat="51.9621747360" lon="-2.1961751394"><ele>9.75</ele><time>2011-10-26T09:59:50Z</time></trkpt><trkpt lat="51.9622223452" lon="-2.1960437950"><ele>9.27</ele><time>2011-10-26T09:59:59Z</time></trkpt><trkpt lat="51.9622509275" lon="-2.1959352493"><ele>9.27</ele><time>2011-10-26T10:00:06Z</time></trkpt><trkpt lat="51.9622791745" lon="-2.1958025638"><ele>8.79</ele><time>2011-10-26T10:00:14Z</time></trkpt><trkpt lat="51.9623163063" lon="-2.1956626698"><ele>8.79</ele><time>2011-10-26T10:00:23Z</time></trkpt><trkpt lat="51.9623444695" lon="-2.1955412999"><ele>8.31</ele><time>2011-10-26T10:00:31Z</time></trkpt><trkpt lat="51.9623456430" lon="-2.1955005638"><ele>9.27</ele><time>2011-10-26T10:00:36Z</time></trkpt><trkpt lat="51.9623822719" lon="-2.1954854764"><ele>8.79</ele><time>2011-10-26T10:00:43Z</time></trkpt><trkpt lat="51.9623822719" lon="-2.1954854764"><ele>8.31</ele><time>2011-10-26T10:01:01Z</time></trkpt><trkpt lat="51.9623915758" lon="-2.1954838000"><ele>8.31</ele><time>2011-10-26T10:01:12Z</time></trkpt><trkpt lat="51.9623915758" lon="-2.1954838000"><ele>8.31</ele><time>2011-10-26T10:01:25Z</time></trkpt><trkpt lat="51.9623915758" lon="-2.1954838000"><ele>8.79</ele><time>2011-10-26T10:01:39Z</time></trkpt><trkpt lat="51.9623935875" lon="-2.1954851411"><ele>8.31</ele><time>2011-10-26T10:01:52Z</time></trkpt><trkpt lat="51.9623935875" lon="-2.1954851411"><ele>8.31</ele><time>2011-10-26T10:02:09Z</time></trkpt><trkpt lat="51.9623935875" lon="-2.1954851411"><ele>8.79</ele><time>2011-10-26T10:02:27Z</time></trkpt><trkpt lat="51.9623940904" lon="-2.1954851411"><ele>8.79</ele><time>2011-10-26T10:02:41Z</time></trkpt><trkpt lat="51.9623940904" lon="-2.1954851411"><ele>8.31</ele><time>2011-10-26T10:02:57Z</time></trkpt><trkpt lat="51.9623940904" lon="-2.1954851411"><ele>8.31</ele><time>2011-10-26T10:03:08Z</time></trkpt><trkpt lat="51.9624173082" lon="-2.1954455785"><ele>8.31</ele><time>2011-10-26T10:03:17Z</time></trkpt><trkpt lat="51.9624364190" lon="-2.1953971311"><ele>8.31</ele><time>2011-10-26T10:03:20Z</time></trkpt><trkpt lat="51.9625313021" lon="-2.1953004878"><ele>7.83</ele><time>2011-10-26T10:03:30Z</time></trkpt><trkpt lat="51.9626090024" lon="-2.1951937862"><ele>8.31</ele><time>2011-10-26T10:03:39Z</time></trkpt><trkpt lat="51.9626846910" lon="-2.1950704884"><ele>7.83</ele><time>2011-10-26T10:03:49Z</time></trkpt><trkpt lat="51.9627488125" lon="-2.1949524712"><ele>7.83</ele><time>2011-10-26T10:03:58Z</time></trkpt><trkpt lat="51.9628141075" lon="-2.1948371362"><ele>7.83</ele><time>2011-10-26T10:04:06Z</time></trkpt><trkpt lat="51.9628990162" lon="-2.1947358828"><ele>7.35</ele><time>2011-10-26T10:04:15Z</time></trkpt><trkpt lat="51.9629938155" lon="-2.1946287621"><ele>7.35</ele><time>2011-10-26T10:04:26Z</time></trkpt><trkpt lat="51.9631055463" lon="-2.1945445240"><ele>7.35</ele><time>2011-10-26T10:04:37Z</time></trkpt><trkpt lat="51.9632190373" lon="-2.1944632195"><ele>7.83</ele><time>2011-10-26T10:04:47Z</time></trkpt><trkpt lat="51.9632429257" lon="-2.1944612917"><ele>7.83</ele><time>2011-10-26T10:04:49Z</time></trkpt><trkpt lat="51.9633554947" lon="-2.1943685040"><ele>7.35</ele><time>2011-10-26T10:04:59Z</time></trkpt><trkpt lat="51.9633672293" lon="-2.1943431068"><ele>7.35</ele><time>2011-10-26T10:05:01Z</time></trkpt><trkpt lat="51.9633778743" lon="-2.1942999400"><ele>7.83</ele><time>2011-10-26T10:05:04Z</time></trkpt><trkpt lat="51.9634587597" lon="-2.1941069886"><ele>7.35</ele><time>2011-10-26T10:05:16Z</time></trkpt><trkpt lat="51.9635045249" lon="-2.1939535160"><ele>6.87</ele><time>2011-10-26T10:05:26Z</time></trkpt><trkpt lat="51.9635315146" lon="-2.1938489936"><ele>6.87</ele><time>2011-10-26T10:05:32Z</time></trkpt><trkpt lat="51.9635679759" lon="-2.1936683636"><ele>6.87</ele><time>2011-10-26T10:05:42Z</time></trkpt><trkpt lat="51.9636070356" lon="-2.1935379412"><ele>6.87</ele><time>2011-10-26T10:05:51Z</time></trkpt><trkpt lat="51.9636126515" lon="-2.1935241949"><ele>6.87</ele><time>2011-10-26T10:05:52Z</time></trkpt><trkpt lat="51.9636558183" lon="-2.1933134738"><ele>6.87</ele><time>2011-10-26T10:06:02Z</time></trkpt><trkpt lat="51.9636651222" lon="-2.1932559740"><ele>6.87</ele><time>2011-10-26T10:06:05Z</time></trkpt><trkpt lat="51.9637131505" lon="-2.1930434927"><ele>6.87</ele><time>2011-10-26T10:06:16Z</time></trkpt><trkpt lat="51.9637615141" lon="-2.1928876732"><ele>6.87</ele><time>2011-10-26T10:06:25Z</time></trkpt><trkpt lat="51.9638037588" lon="-2.1927226335"><ele>6.87</ele><time>2011-10-26T10:06:34Z</time></trkpt><trkpt lat="51.9638453331" lon="-2.1925545763"><ele>7.35</ele><time>2011-10-26T10:06:43Z</time></trkpt><trkpt lat="51.9638939481" lon="-2.1923719347"><ele>7.35</ele><time>2011-10-26T10:06:53Z</time></trkpt><trkpt lat="51.9639376178" lon="-2.1922358964"><ele>7.35</ele><time>2011-10-26T10:07:01Z</time></trkpt><trkpt lat="51.9639854785" lon="-2.1920886263"><ele>6.87</ele><time>2011-10-26T10:07:10Z</time></trkpt><trkpt lat="51.9640379492" lon="-2.1919263527"><ele>6.87</ele><time>2011-10-26T10:07:20Z</time></trkpt><trkpt lat="51.9640900847" lon="-2.1917867940"><ele>7.35</ele><time>2011-10-26T10:07:28Z</time></trkpt><trkpt lat="51.9641503505" lon="-2.1916397754"><ele>6.87</ele><time>2011-10-26T10:07:37Z</time></trkpt><trkpt lat="51.9641972892" lon="-2.1915048268"><ele>6.87</ele><time>2011-10-26T10:07:46Z</time></trkpt><trkpt lat="51.9642564654" lon="-2.1913385298"><ele>6.87</ele><time>2011-10-26T10:07:56Z</time></trkpt><trkpt lat="51.9643034879" lon="-2.1911953669"><ele>6.87</ele><time>2011-10-26T10:08:05Z</time></trkpt><trkpt lat="51.9643684477" lon="-2.1910511982"><ele>6.87</ele><time>2011-10-26T10:08:14Z</time></trkpt><trkpt lat="51.9644418731" lon="-2.1908851527"><ele>6.87</ele><time>2011-10-26T10:08:24Z</time></trkpt><trkpt lat="51.9645174779" lon="-2.1907486115"><ele>6.87</ele><time>2011-10-26T10:08:35Z</time></trkpt><trkpt lat="51.9645806774" lon="-2.1906052809"><ele>7.35</ele><time>2011-10-26T10:08:45Z</time></trkpt><trkpt lat="51.9646391831" lon="-2.1904707514"><ele>6.87</ele><time>2011-10-26T10:08:54Z</time></trkpt><trkpt lat="51.9646851160" lon="-2.1903308574"><ele>7.35</ele><time>2011-10-26T10:09:02Z</time></trkpt><trkpt lat="51.9647321384" lon="-2.1902073082"><ele>7.35</ele><time>2011-10-26T10:09:10Z</time></trkpt><trkpt lat="51.9647630677" lon="-2.1901316196"><ele>7.35</ele><time>2011-10-26T10:09:17Z</time></trkpt><trkpt lat="51.9647839386" lon="-2.1901338827"><ele>8.31</ele><time>2011-10-26T10:09:26Z</time></trkpt><trkpt lat="51.9647842739" lon="-2.1901568491"><ele>8.79</ele><time>2011-10-26T10:09:35Z</time></trkpt><trkpt lat="51.9647834357" lon="-2.1901648957"><ele>8.79</ele><time>2011-10-26T10:09:47Z</time></trkpt><trkpt lat="51.9647834357" lon="-2.1901648957"><ele>8.79</ele><time>2011-10-26T10:09:58Z</time></trkpt><trkpt lat="51.9648161251" lon="-2.1902300231"><ele>9.27</ele><time>2011-10-26T10:10:08Z</time></trkpt><trkpt lat="51.9648421928" lon="-2.1903437655"><ele>9.27</ele><time>2011-10-26T10:10:16Z</time></trkpt><trkpt lat="51.9648633990" lon="-2.1904316917"><ele>9.27</ele><time>2011-10-26T10:10:23Z</time></trkpt><trkpt lat="51.9649005309" lon="-2.1905264072"><ele>9.27</ele><time>2011-10-26T10:10:30Z</time></trkpt><trkpt lat="51.9649400096" lon="-2.1906158421"><ele>9.75</ele><time>2011-10-26T10:10:37Z</time></trkpt><trkpt lat="51.9649754651" lon="-2.1906834841"><ele>9.27</ele><time>2011-10-26T10:10:43Z</time></trkpt><trkpt lat="51.9650274329" lon="-2.1908218693"><ele>9.27</ele><time>2011-10-26T10:10:53Z</time></trkpt><trkpt lat="51.9650349766" lon="-2.1908331010"><ele>9.27</ele><time>2011-10-26T10:11:03Z</time></trkpt><trkpt lat="51.9650561828" lon="-2.1908677183"><ele>9.75</ele><time>2011-10-26T10:11:08Z</time></trkpt><trkpt lat="51.9650725275" lon="-2.1909056883"><ele>9.27</ele><time>2011-10-26T10:11:11Z</time></trkpt><trkpt lat="51.9651423488" lon="-2.1910165809"><ele>9.27</ele><time>2011-10-26T10:11:20Z</time></trkpt><trkpt lat="51.9652115833" lon="-2.1911110450"><ele>9.27</ele><time>2011-10-26T10:11:28Z</time></trkpt><trkpt lat="51.9652279280" lon="-2.1911460813"><ele>9.27</ele><time>2011-10-26T10:11:35Z</time></trkpt><trkpt lat="51.9652279280" lon="-2.1911460813"><ele>9.27</ele><time>2011-10-26T10:11:36Z</time></trkpt><trkpt lat="51.9652817398" lon="-2.1912287269"><ele>9.75</ele><time>2011-10-26T10:11:42Z</time></trkpt><trkpt lat="51.9653786346" lon="-2.1913323272"><ele>9.27</ele><time>2011-10-26T10:11:52Z</time></trkpt><trkpt lat="51.9654015172" lon="-2.1913456544"><ele>9.27</ele><time>2011-10-26T10:11:54Z</time></trkpt><trkpt lat="51.9654783793" lon="-2.1913948562"><ele>9.27</ele><time>2011-10-26T10:12:02Z</time></trkpt><trkpt lat="51.9655800518" lon="-2.1914332453"><ele>8.31</ele><time>2011-10-26T10:12:11Z</time></trkpt><trkpt lat="51.9656518009" lon="-2.1914741490"><ele>7.35</ele><time>2011-10-26T10:12:19Z</time></trkpt><trkpt lat="51.9657562394" lon="-2.1915307269"><ele>7.35</ele><time>2011-10-26T10:12:29Z</time></trkpt><trkpt lat="51.9658387173" lon="-2.1915837843"><ele>7.83</ele><time>2011-10-26T10:12:36Z</time></trkpt><trkpt lat="51.9658994023" lon="-2.1916165575"><ele>7.35</ele><time>2011-10-26T10:12:42Z</time></trkpt><trkpt lat="51.9659863226" lon="-2.1916555334"><ele>7.83</ele><time>2011-10-26T10:12:50Z</time></trkpt><trkpt lat="51.9659969676" lon="-2.1916615684"><ele>7.35</ele><time>2011-10-26T10:12:51Z</time></trkpt><trkpt lat="51.9660401344" lon="-2.1916743089"><ele>6.87</ele><time>2011-10-26T10:12:55Z</time></trkpt><trkpt lat="51.9661226124" lon="-2.1917265281"><ele>6.87</ele><time>2011-10-26T10:13:03Z</time></trkpt><trkpt lat="51.9662208483" lon="-2.1917640790"><ele>7.35</ele><time>2011-10-26T10:13:12Z</time></trkpt><trkpt lat="51.9663095288" lon="-2.1918069944"><ele>6.87</ele><time>2011-10-26T10:13:20Z</time></trkpt><trkpt lat="51.9663848821" lon="-2.1918450482"><ele>7.35</ele><time>2011-10-26T10:13:27Z</time></trkpt><trkpt lat="51.9664848782" lon="-2.1918748878"><ele>7.83</ele><time>2011-10-26T10:13:36Z</time></trkpt><trkpt lat="51.9665646739" lon="-2.1919219103"><ele>7.35</ele><time>2011-10-26T10:13:44Z</time></trkpt><trkpt lat="51.9666305557" lon="-2.1919696033"><ele>6.87</ele><time>2011-10-26T10:13:52Z</time></trkpt><trkpt lat="51.9666847028" lon="-2.1920407657"><ele>7.83</ele><time>2011-10-26T10:14:00Z</time></trkpt><trkpt lat="51.9667498302" lon="-2.1921242494"><ele>7.35</ele><time>2011-10-26T10:14:09Z</time></trkpt><trkpt lat="51.9668282010" lon="-2.1921921428"><ele>7.83</ele><time>2011-10-26T10:14:18Z</time></trkpt><trkpt lat="51.9668998662" lon="-2.1923076455"><ele>6.39</ele><time>2011-10-26T10:14:28Z</time></trkpt><trkpt lat="51.9669170491" lon="-2.1923539974"><ele>6.87</ele><time>2011-10-26T10:14:35Z</time></trkpt><trkpt lat="51.9669227488" lon="-2.1923586912"><ele>6.87</ele><time>2011-10-26T10:14:45Z</time></trkpt><trkpt lat="51.9669510797" lon="-2.1923652291"><ele>6.87</ele><time>2011-10-26T10:14:53Z</time></trkpt><trkpt lat="51.9669644907" lon="-2.1923720185"><ele>6.87</ele><time>2011-10-26T10:15:03Z</time></trkpt><trkpt lat="51.9670043886" lon="-2.1923049632"><ele>6.39</ele><time>2011-10-26T10:15:12Z</time></trkpt><trkpt lat="51.9670632295" lon="-2.1922125947"><ele>6.39</ele><time>2011-10-26T10:15:20Z</time></trkpt><trkpt lat="51.9670935720" lon="-2.1921331342"><ele>6.87</ele><time>2011-10-26T10:15:30Z</time></trkpt><trkpt lat="51.9670807477" lon="-2.1920918953"><ele>6.87</ele><time>2011-10-26T10:15:39Z</time></trkpt><trkpt lat="51.9670697674" lon="-2.1920908894"><ele>7.35</ele><time>2011-10-26T10:15:46Z</time></trkpt><trkpt lat="51.9670607988" lon="-2.1921094134"><ele>6.87</ele><time>2011-10-26T10:15:56Z</time></trkpt><trkpt lat="51.9670582004" lon="-2.1920922305"><ele>7.35</ele><time>2011-10-26T10:16:11Z</time></trkpt><trkpt lat="51.9670463819" lon="-2.1919891331"><ele>7.83</ele><time>2011-10-26T10:16:20Z</time></trkpt><trkpt lat="51.9670353178" lon="-2.1918956749"><ele>8.31</ele><time>2011-10-26T10:16:29Z</time></trkpt><trkpt lat="51.9670027122" lon="-2.1918884665"><ele>8.79</ele><time>2011-10-26T10:16:42Z</time></trkpt><trkpt lat="51.9669342320" lon="-2.1918873768"><ele>8.31</ele><time>2011-10-26T10:16:52Z</time></trkpt><trkpt lat="51.9668287039" lon="-2.1918862872"><ele>7.83</ele><time>2011-10-26T10:17:01Z</time></trkpt><trkpt lat="51.9668052346" lon="-2.1918532625"><ele>8.31</ele><time>2011-10-26T10:17:04Z</time></trkpt><trkpt lat="51.9667134527" lon="-2.1915684454"><ele>8.31</ele><time>2011-10-26T10:17:16Z</time></trkpt><trkpt lat="51.9666848704" lon="-2.1913942695"><ele>7.83</ele><time>2011-10-26T10:17:27Z</time></trkpt><trkpt lat="51.9667350780" lon="-2.1914549544"><ele>8.31</ele><time>2011-10-26T10:17:46Z</time></trkpt><trkpt lat="51.9667317253" lon="-2.1914839558"><ele>7.83</ele><time>2011-10-26T10:17:48Z</time></trkpt><trkpt lat="51.9667365868" lon="-2.1916717943"><ele>7.83</ele><time>2011-10-26T10:18:02Z</time></trkpt><trkpt lat="51.9668147899" lon="-2.1917282883"><ele>7.83</ele><time>2011-10-26T10:18:16Z</time></trkpt><trkpt lat="51.9668147899" lon="-2.1917282883"><ele>7.83</ele><time>2011-10-26T10:18:29Z</time></trkpt><trkpt lat="51.9669435360" lon="-2.1918054856"><ele>7.83</ele><time>2011-10-26T10:18:41Z</time></trkpt><trkpt lat="51.9669435360" lon="-2.1918054856"><ele>7.83</ele><time>2011-10-26T10:18:55Z</time></trkpt><trkpt lat="51.9668991119" lon="-2.1918173879"><ele>8.31</ele><time>2011-10-26T10:19:06Z</time></trkpt><trkpt lat="51.9668798335" lon="-2.1918302961"><ele>8.79</ele><time>2011-10-26T10:19:20Z</time></trkpt><trkpt lat="51.9668742176" lon="-2.1918519214"><ele>7.83</ele><time>2011-10-26T10:19:30Z</time></trkpt><trkpt lat="51.9667331502" lon="-2.1919591259"><ele>8.31</ele><time>2011-10-26T10:19:42Z</time></trkpt><trkpt lat="51.9666732196" lon="-2.1919494029"><ele>8.31</ele><time>2011-10-26T10:19:59Z</time></trkpt><trkpt lat="51.9666564558" lon="-2.1918815933"><ele>8.31</ele><time>2011-10-26T10:20:11Z</time></trkpt><trkpt lat="51.9666940905" lon="-2.1918755583"><ele>8.31</ele><time>2011-10-26T10:20:33Z</time></trkpt><trkpt lat="51.9667205773" lon="-2.1918908134"><ele>8.31</ele><time>2011-10-26T10:20:47Z</time></trkpt><trkpt lat="51.9667205773" lon="-2.1918915678"><ele>8.31</ele><time>2011-10-26T10:21:01Z</time></trkpt><trkpt lat="51.9667290431" lon="-2.1918952558"><ele>8.31</ele><time>2011-10-26T10:21:12Z</time></trkpt><trkpt lat="51.9667542726" lon="-2.1919087507"><ele>8.31</ele><time>2011-10-26T10:21:22Z</time></trkpt><trkpt lat="51.9667852018" lon="-2.1919496544"><ele>8.31</ele><time>2011-10-26T10:21:37Z</time></trkpt><trkpt lat="51.9668038096" lon="-2.1920037176"><ele>8.31</ele><time>2011-10-26T10:21:53Z</time></trkpt><trkpt lat="51.9668197352" lon="-2.1920897160"><ele>7.83</ele><time>2011-10-26T10:22:05Z</time></trkpt><trkpt lat="51.9668631535" lon="-2.1921042167"><ele>7.83</ele><time>2011-10-26T10:22:22Z</time></trkpt><trkpt lat="51.9668794144" lon="-2.1921791509"><ele>7.83</ele><time>2011-10-26T10:22:38Z</time></trkpt><trkpt lat="51.9669251796" lon="-2.1923140995"><ele>7.83</ele><time>2011-10-26T10:22:54Z</time></trkpt><trkpt lat="51.9669659995" lon="-2.1923552547"><ele>8.31</ele><time>2011-10-26T10:23:08Z</time></trkpt><trkpt lat="51.9669876248" lon="-2.1922231559"><ele>8.31</ele><time>2011-10-26T10:23:19Z</time></trkpt><trkpt lat="51.9669797458" lon="-2.1921550948"><ele>7.83</ele><time>2011-10-26T10:23:31Z</time></trkpt><trkpt lat="51.9669789914" lon="-2.1921426058"><ele>7.83</ele><time>2011-10-26T10:23:43Z</time></trkpt><trkpt lat="51.9669554383" lon="-2.1920100041"><ele>7.83</ele><time>2011-10-26T10:23:57Z</time></trkpt><trkpt lat="51.9669431169" lon="-2.1920246724"><ele>7.83</ele><time>2011-10-26T10:24:09Z</time></trkpt><trkpt lat="51.9669202343" lon="-2.1920234989"><ele>7.35</ele><time>2011-10-26T10:24:12Z</time></trkpt></trkseg><trkseg><trkpt lat="51.9667960145" lon="-2.1920282766"><ele>7.83</ele><time>2011-10-26T10:30:25Z</time></trkpt><trkpt lat="51.9668732956" lon="-2.1918781567"><ele>8.31</ele><time>2011-10-26T10:30:41Z</time></trkpt><trkpt lat="51.9668686856" lon="-2.1918460540"><ele>8.31</ele><time>2011-10-26T10:30:53Z</time></trkpt><trkpt lat="51.9668429531" lon="-2.1919273585"><ele>8.79</ele><time>2011-10-26T10:31:08Z</time></trkpt><trkpt lat="51.9668106828" lon="-2.1919146180"><ele>8.31</ele><time>2011-10-26T10:31:21Z</time></trkpt><trkpt lat="51.9668132812" lon="-2.1919451281"><ele>7.83</ele><time>2011-10-26T10:31:49Z</time></trkpt><trkpt lat="51.9669734593" lon="-2.1918676794"><ele>8.31</ele><time>2011-10-26T10:31:58Z</time></trkpt><trkpt lat="51.9669356570" lon="-2.1919143666"><ele>8.31</ele><time>2011-10-26T10:32:09Z</time></trkpt><trkpt lat="51.9669684302" lon="-2.1921594534"><ele>8.31</ele><time>2011-10-26T10:32:26Z</time></trkpt><trkpt lat="51.9670376647" lon="-2.1919039730"><ele>8.31</ele><time>2011-10-26T10:32:34Z</time></trkpt><trkpt lat="51.9669750519" lon="-2.1918359119"><ele>7.83</ele><time>2011-10-26T10:32:45Z</time></trkpt><trkpt lat="51.9669823442" lon="-2.1918219142"><ele>7.83</ele><time>2011-10-26T10:32:53Z</time></trkpt><trkpt lat="51.9669912290" lon="-2.1918144543"><ele>8.31</ele><time>2011-10-26T10:33:04Z</time></trkpt><trkpt lat="51.9670115132" lon="-2.1918039769"><ele>8.31</ele><time>2011-10-26T10:33:09Z</time></trkpt><trkpt lat="51.9670115132" lon="-2.1918039769"><ele>8.79</ele><time>2011-10-26T10:33:26Z</time></trkpt><trkpt lat="51.9670115132" lon="-2.1918039769"><ele>8.31</ele><time>2011-10-26T10:33:40Z</time></trkpt><trkpt lat="51.9670043886" lon="-2.1917948406"><ele>7.83</ele><time>2011-10-26T10:33:56Z</time></trkpt><trkpt lat="51.9670160394" lon="-2.1918094251"><ele>8.31</ele><time>2011-10-26T10:34:11Z</time></trkpt><trkpt lat="51.9670405146" lon="-2.1918556932"><ele>7.83</ele><time>2011-10-26T10:34:21Z</time></trkpt><trkpt lat="51.9670380000" lon="-2.1918648295"><ele>7.35</ele><time>2011-10-26T10:34:30Z</time></trkpt><trkpt lat="51.9670488965" lon="-2.1919105947"><ele>7.35</ele><time>2011-10-26T10:34:38Z</time></trkpt><trkpt lat="51.9670488965" lon="-2.1919105947"><ele>6.87</ele><time>2011-10-26T10:34:49Z</time></trkpt><trkpt lat="51.9670488965" lon="-2.1919105947"><ele>6.87</ele><time>2011-10-26T10:34:59Z</time></trkpt><trkpt lat="51.9670438673" lon="-2.1919407696"><ele>7.35</ele><time>2011-10-26T10:35:05Z</time></trkpt><trkpt lat="51.9670644030" lon="-2.1920799930"><ele>6.87</ele><time>2011-10-26T10:35:12Z</time></trkpt><trkpt lat="51.9670621399" lon="-2.1921082400"><ele>6.39</ele><time>2011-10-26T10:35:21Z</time></trkpt><trkpt lat="51.9670447893" lon="-2.1921949089"><ele>5.91</ele><time>2011-10-26T10:35:29Z</time></trkpt><trkpt lat="51.9670057297" lon="-2.1922843438"><ele>5.91</ele><time>2011-10-26T10:35:36Z</time></trkpt><trkpt lat="51.9669509120" lon="-2.1923957393"><ele>5.42</ele><time>2011-10-26T10:35:45Z</time></trkpt><trkpt lat="51.9669528399" lon="-2.1924978308"><ele>5.42</ele><time>2011-10-26T10:35:52Z</time></trkpt><trkpt lat="51.9669704419" lon="-2.1925822366"><ele>5.42</ele><time>2011-10-26T10:36:01Z</time></trkpt><trkpt lat="51.9669675082" lon="-2.1926157642"><ele>5.42</ele><time>2011-10-26T10:36:08Z</time></trkpt><trkpt lat="51.9669706933" lon="-2.1926150098"><ele>5.42</ele><time>2011-10-26T10:36:17Z</time></trkpt><trkpt lat="51.9669889659" lon="-2.1926376410"><ele>5.42</ele><time>2011-10-26T10:36:26Z</time></trkpt><trkpt lat="51.9669930730" lon="-2.1926576737"><ele>5.42</ele><time>2011-10-26T10:36:28Z</time></trkpt><trkpt lat="51.9670133572" lon="-2.1927083004"><ele>5.42</ele><time>2011-10-26T10:36:32Z</time></trkpt><trkpt lat="51.9670810830" lon="-2.1928574983"><ele>5.42</ele><time>2011-10-26T10:36:41Z</time></trkpt><trkpt lat="51.9671343081" lon="-2.1929762699"><ele>5.42</ele><time>2011-10-26T10:36:49Z</time></trkpt><trkpt lat="51.9671851862" lon="-2.1931079496"><ele>5.42</ele><time>2011-10-26T10:36:58Z</time></trkpt><trkpt lat="51.9672386628" lon="-2.1932120528"><ele>5.42</ele><time>2011-10-26T10:37:06Z</time></trkpt><trkpt lat="51.9672876131" lon="-2.1933330875"><ele>4.94</ele><time>2011-10-26T10:37:14Z</time></trkpt><trkpt lat="51.9673389103" lon="-2.1934417170"><ele>5.42</ele><time>2011-10-26T10:37:22Z</time></trkpt><trkpt lat="51.9673917163" lon="-2.1935640089"><ele>5.42</ele><time>2011-10-26T10:37:32Z</time></trkpt><trkpt lat="51.9674316142" lon="-2.1936919168"><ele>5.42</ele><time>2011-10-26T10:37:40Z</time></trkpt><trkpt lat="51.9674604479" lon="-2.1938008815"><ele>5.91</ele><time>2011-10-26T10:37:48Z</time></trkpt><trkpt lat="51.9674938079" lon="-2.1939375903"><ele>5.42</ele><time>2011-10-26T10:37:58Z</time></trkpt><trkpt lat="51.9675077219" lon="-2.1940613911"><ele>5.91</ele><time>2011-10-26T10:38:06Z</time></trkpt><trkpt lat="51.9675108232" lon="-2.1941348165"><ele>6.39</ele><time>2011-10-26T10:38:11Z</time></trkpt><trkpt lat="51.9674943108" lon="-2.1942410991"><ele>6.39</ele><time>2011-10-26T10:38:18Z</time></trkpt><trkpt lat="51.9674412534" lon="-2.1943229064"><ele>6.39</ele><time>2011-10-26T10:38:27Z</time></trkpt><trkpt lat="51.9673708454" lon="-2.1943804901"><ele>6.87</ele><time>2011-10-26T10:38:35Z</time></trkpt><trkpt lat="51.9673004374" lon="-2.1944340505"><ele>6.87</ele><time>2011-10-26T10:38:43Z</time></trkpt><trkpt lat="51.9672375731" lon="-2.1944854315"><ele>6.39</ele><time>2011-10-26T10:38:50Z</time></trkpt><trkpt lat="51.9671628065" lon="-2.1945509780"><ele>6.39</ele><time>2011-10-26T10:38:59Z</time></trkpt><trkpt lat="51.9670917280" lon="-2.1946374793"><ele>6.87</ele><time>2011-10-26T10:39:08Z</time></trkpt><trkpt lat="51.9670368265" lon="-2.1946946438"><ele>6.39</ele><time>2011-10-26T10:39:14Z</time></trkpt><trkpt lat="51.9669804163" lon="-2.1947897784"><ele>6.87</ele><time>2011-10-26T10:39:22Z</time></trkpt><trkpt lat="51.9669223297" lon="-2.1948813088"><ele>6.39</ele><time>2011-10-26T10:39:30Z</time></trkpt><trkpt lat="51.9668707810" lon="-2.1949618589"><ele>6.39</ele><time>2011-10-26T10:39:38Z</time></trkpt><trkpt lat="51.9668561965" lon="-2.1949755214"><ele>6.39</ele><time>2011-10-26T10:39:40Z</time></trkpt><trkpt lat="51.9667997025" lon="-2.1950579155"><ele>6.39</ele><time>2011-10-26T10:39:49Z</time></trkpt><trkpt lat="51.9667497464" lon="-2.1951303352"><ele>6.39</ele><time>2011-10-26T10:39:57Z</time></trkpt><trkpt lat="51.9667269476" lon="-2.1952153277"><ele>6.87</ele><time>2011-10-26T10:40:05Z</time></trkpt><trkpt lat="51.9667269476" lon="-2.1952153277"><ele>6.87</ele><time>2011-10-26T10:40:15Z</time></trkpt><trkpt lat="51.9666958507" lon="-2.1952579916"><ele>6.87</ele><time>2011-10-26T10:40:22Z</time></trkpt><trkpt lat="51.9666336570" lon="-2.1953366138"><ele>6.87</ele><time>2011-10-26T10:40:31Z</time></trkpt><trkpt lat="51.9665655121" lon="-2.1954334248"><ele>6.87</ele><time>2011-10-26T10:40:39Z</time></trkpt><trkpt lat="51.9665094372" lon="-2.1954796929"><ele>7.35</ele><time>2011-10-26T10:40:46Z</time></trkpt><trkpt lat="51.9664396159" lon="-2.1955411322"><ele>6.87</ele><time>2011-10-26T10:40:55Z</time></trkpt><trkpt lat="51.9663770869" lon="-2.1955874842"><ele>6.87</ele><time>2011-10-26T10:41:03Z</time></trkpt><trkpt lat="51.9663200900" lon="-2.1956424695"><ele>6.87</ele><time>2011-10-26T10:41:10Z</time></trkpt><trkpt lat="51.9662211835" lon="-2.1957370173"><ele>6.39</ele><time>2011-10-26T10:41:20Z</time></trkpt><trkpt lat="51.9661756698" lon="-2.1958169807"><ele>6.87</ele><time>2011-10-26T10:41:26Z</time></trkpt><trkpt lat="51.9661326706" lon="-2.1958693676"><ele>6.39</ele><time>2011-10-26T10:41:31Z</time></trkpt><trkpt lat="51.9660814572" lon="-2.1959627420"><ele>6.39</ele><time>2011-10-26T10:41:39Z</time></trkpt><trkpt lat="51.9660652801" lon="-2.1959878877"><ele>6.87</ele><time>2011-10-26T10:41:41Z</time></trkpt><trkpt lat="51.9660067745" lon="-2.1960942540"><ele>6.87</ele><time>2011-10-26T10:41:50Z</time></trkpt><trkpt lat="51.9659661222" lon="-2.1961851977"><ele>6.87</ele><time>2011-10-26T10:41:59Z</time></trkpt><trkpt lat="51.9659187645" lon="-2.1962466370"><ele>6.39</ele><time>2011-10-26T10:42:07Z</time></trkpt><trkpt lat="51.9659035932" lon="-2.1962656640"><ele>6.39</ele><time>2011-10-26T10:42:09Z</time></trkpt><trkpt lat="51.9658261444" lon="-2.1963549312"><ele>6.39</ele><time>2011-10-26T10:42:19Z</time></trkpt><trkpt lat="51.9657567423" lon="-2.1964755468"><ele>6.39</ele><time>2011-10-26T10:42:28Z</time></trkpt><trkpt lat="51.9657144137" lon="-2.1965640597"><ele>6.39</ele><time>2011-10-26T10:42:35Z</time></trkpt><trkpt lat="51.9656604342" lon="-2.1966808196"><ele>5.91</ele><time>2011-10-26T10:42:44Z</time></trkpt><trkpt lat="51.9656179380" lon="-2.1967691649"><ele>6.39</ele><time>2011-10-26T10:42:51Z</time></trkpt><trkpt lat="51.9655672275" lon="-2.1968754474"><ele>6.39</ele><time>2011-10-26T10:43:00Z</time></trkpt><trkpt lat="51.9655049499" lon="-2.1969954763"><ele>5.91</ele><time>2011-10-26T10:43:09Z</time></trkpt><trkpt lat="51.9654521439" lon="-2.1970856655"><ele>6.39</ele><time>2011-10-26T10:43:17Z</time></trkpt><trkpt lat="51.9654039480" lon="-2.1971904393"><ele>6.39</ele><time>2011-10-26T10:43:25Z</time></trkpt><trkpt lat="51.9653565902" lon="-2.1972801257"><ele>5.91</ele><time>2011-10-26T10:43:33Z</time></trkpt><trkpt lat="51.9653094001" lon="-2.1973777749"><ele>5.91</ele><time>2011-10-26T10:43:41Z</time></trkpt><trkpt lat="51.9652517326" lon="-2.1974842250"><ele>5.91</ele><time>2011-10-26T10:43:49Z</time></trkpt><trkpt lat="51.9652001839" lon="-2.1976002306"><ele>5.91</ele><time>2011-10-26T10:43:58Z</time></trkpt><trkpt lat="51.9651534967" lon="-2.1977050882"><ele>6.39</ele><time>2011-10-26T10:44:06Z</time></trkpt><trkpt lat="51.9651021156" lon="-2.1977967862"><ele>5.91</ele><time>2011-10-26T10:44:13Z</time></trkpt><trkpt lat="51.9650422689" lon="-2.1979149710"><ele>6.39</ele><time>2011-10-26T10:44:22Z</time></trkpt><trkpt lat="51.9649750460" lon="-2.1980419569"><ele>5.91</ele><time>2011-10-26T10:44:32Z</time></trkpt><trkpt lat="51.9649308734" lon="-2.1981147118"><ele>6.39</ele><time>2011-10-26T10:44:38Z</time></trkpt><trkpt lat="51.9648613874" lon="-2.1982473135"><ele>5.91</ele><time>2011-10-26T10:44:48Z</time></trkpt><trkpt lat="51.9648017921" lon="-2.1983597986"><ele>6.39</ele><time>2011-10-26T10:44:57Z</time></trkpt><trkpt lat="51.9647437055" lon="-2.1984669194"><ele>6.39</ele><time>2011-10-26T10:45:06Z</time></trkpt><trkpt lat="51.9646803383" lon="-2.1985757165"><ele>6.87</ele><time>2011-10-26T10:45:15Z</time></trkpt><trkpt lat="51.9646208268" lon="-2.1986830886"><ele>5.91</ele><time>2011-10-26T10:45:24Z</time></trkpt><trkpt lat="51.9645722955" lon="-2.1987614594"><ele>5.91</ele><time>2011-10-26T10:45:31Z</time></trkpt><trkpt lat="51.9645323139" lon="-2.1988435183"><ele>5.91</ele><time>2011-10-26T10:45:39Z</time></trkpt><trkpt lat="51.9645196572" lon="-2.1988622099"><ele>5.91</ele><time>2011-10-26T10:45:41Z</time></trkpt><trkpt lat="51.9644697849" lon="-2.1989424247"><ele>6.39</ele><time>2011-10-26T10:45:49Z</time></trkpt><trkpt lat="51.9643859658" lon="-2.1990491264"><ele>6.39</ele><time>2011-10-26T10:45:58Z</time></trkpt><trkpt lat="51.9643161446" lon="-2.1991015971"><ele>6.39</ele><time>2011-10-26T10:46:06Z</time></trkpt><trkpt lat="51.9642471615" lon="-2.1991733462"><ele>6.39</ele><time>2011-10-26T10:46:15Z</time></trkpt><trkpt lat="51.9641526137" lon="-2.1992403176"><ele>6.39</ele><time>2011-10-26T10:46:25Z</time></trkpt><trkpt lat="51.9640832953" lon="-2.1992932074"><ele>5.91</ele><time>2011-10-26T10:46:33Z</time></trkpt><trkpt lat="51.9640187547" lon="-2.1993654594"><ele>6.87</ele><time>2011-10-26T10:46:41Z</time></trkpt><trkpt lat="51.9639579020" lon="-2.1994491108"><ele>6.39</ele><time>2011-10-26T10:46:49Z</time></trkpt><trkpt lat="51.9639396295" lon="-2.1994812135"><ele>6.39</ele><time>2011-10-26T10:46:52Z</time></trkpt><trkpt lat="51.9638745859" lon="-2.1995861549"><ele>6.87</ele><time>2011-10-26T10:47:01Z</time></trkpt><trkpt lat="51.9638217799" lon="-2.1996621788"><ele>6.87</ele><time>2011-10-26T10:47:08Z</time></trkpt><trkpt lat="51.9637610950" lon="-2.1997596603"><ele>6.87</ele><time>2011-10-26T10:47:16Z</time></trkpt><trkpt lat="51.9637048524" lon="-2.1998523641"><ele>6.87</ele><time>2011-10-26T10:47:25Z</time></trkpt><trkpt lat="51.9636422396" lon="-2.1999699622"><ele>6.39</ele><time>2011-10-26T10:47:34Z</time></trkpt><trkpt lat="51.9636117294" lon="-2.2000223491"><ele>6.39</ele><time>2011-10-26T10:47:38Z</time></trkpt><trkpt lat="51.9636030961" lon="-2.2000501771"><ele>6.87</ele><time>2011-10-26T10:47:40Z</time></trkpt><trkpt lat="51.9635248091" lon="-2.2001954354"><ele>6.39</ele><time>2011-10-26T10:47:52Z</time></trkpt><trkpt lat="51.9634656329" lon="-2.2002878878"><ele>6.87</ele><time>2011-10-26T10:48:00Z</time></trkpt><trkpt lat="51.9634269085" lon="-2.2003705334"><ele>6.87</ele><time>2011-10-26T10:48:06Z</time></trkpt><trkpt lat="51.9633547403" lon="-2.2004937474"><ele>6.39</ele><time>2011-10-26T10:48:16Z</time></trkpt><trkpt lat="51.9633060414" lon="-2.2005969286"><ele>6.87</ele><time>2011-10-26T10:48:24Z</time></trkpt><trkpt lat="51.9632502180" lon="-2.2006993555"><ele>6.87</ele><time>2011-10-26T10:48:32Z</time></trkpt><trkpt lat="51.9632150140" lon="-2.2008042131"><ele>6.87</ele><time>2011-10-26T10:48:38Z</time></trkpt><trkpt lat="51.9631616212" lon="-2.2009149380"><ele>6.87</ele><time>2011-10-26T10:48:46Z</time></trkpt><trkpt lat="51.9631184544" lon="-2.2010503057"><ele>6.87</ele><time>2011-10-26T10:48:55Z</time></trkpt><trkpt lat="51.9630824961" lon="-2.2011503857"><ele>6.87</ele><time>2011-10-26T10:49:02Z</time></trkpt><trkpt lat="51.9630530756" lon="-2.2012412455"><ele>6.87</ele><time>2011-10-26T10:49:09Z</time></trkpt><trkpt lat="51.9629981741" lon="-2.2013666388"><ele>6.87</ele><time>2011-10-26T10:49:19Z</time></trkpt><trkpt lat="51.9629530795" lon="-2.2014819738"><ele>6.87</ele><time>2011-10-26T10:49:28Z</time></trkpt><trkpt lat="51.9629198872" lon="-2.2015759349"><ele>6.87</ele><time>2011-10-26T10:49:35Z</time></trkpt><trkpt lat="51.9628716912" lon="-2.2016998194"><ele>6.87</ele><time>2011-10-26T10:49:43Z</time></trkpt><trkpt lat="51.9628454559" lon="-2.2017926909"><ele>6.87</ele><time>2011-10-26T10:49:49Z</time></trkpt><trkpt lat="51.9628005289" lon="-2.2019149829"><ele>6.87</ele><time>2011-10-26T10:49:58Z</time></trkpt><trkpt lat="51.9627597090" lon="-2.2020164877"><ele>6.87</ele><time>2011-10-26T10:50:05Z</time></trkpt><trkpt lat="51.9627234153" lon="-2.2021466587"><ele>6.87</ele><time>2011-10-26T10:50:13Z</time></trkpt><trkpt lat="51.9626921508" lon="-2.2022282984"><ele>7.35</ele><time>2011-10-26T10:50:20Z</time></trkpt><trkpt lat="51.9626632333" lon="-2.2023288812"><ele>7.35</ele><time>2011-10-26T10:50:27Z</time></trkpt><trkpt lat="51.9626285322" lon="-2.2024346609"><ele>7.35</ele><time>2011-10-26T10:50:36Z</time></trkpt><trkpt lat="51.9626219105" lon="-2.2024590522"><ele>7.35</ele><time>2011-10-26T10:50:38Z</time></trkpt><trkpt lat="51.9625883829" lon="-2.2025712859"><ele>6.87</ele><time>2011-10-26T10:50:46Z</time></trkpt><trkpt lat="51.9625738822" lon="-2.2026634030"><ele>6.87</ele><time>2011-10-26T10:50:52Z</time></trkpt><trkpt lat="51.9625422824" lon="-2.2028117627"><ele>6.87</ele><time>2011-10-26T10:51:01Z</time></trkpt><trkpt lat="51.9625472277" lon="-2.2028548457"><ele>6.87</ele><time>2011-10-26T10:51:09Z</time></trkpt><trkpt lat="51.9625472277" lon="-2.2028548457"><ele>6.87</ele><time>2011-10-26T10:51:22Z</time></trkpt><trkpt lat="51.9625361636" lon="-2.2028704360"><ele>6.87</ele><time>2011-10-26T10:51:32Z</time></trkpt><trkpt lat="51.9625290390" lon="-2.2028797399"><ele>6.87</ele><time>2011-10-26T10:51:33Z</time></trkpt><trkpt lat="51.9624983612" lon="-2.2029117588"><ele>6.87</ele><time>2011-10-26T10:51:36Z</time></trkpt><trkpt lat="51.9624349102" lon="-2.2030370682"><ele>7.83</ele><time>2011-10-26T10:51:45Z</time></trkpt><trkpt lat="51.9624142908" lon="-2.2030892875"><ele>6.87</ele><time>2011-10-26T10:51:48Z</time></trkpt><trkpt lat="51.9623716269" lon="-2.2032285947"><ele>7.83</ele><time>2011-10-26T10:51:57Z</time></trkpt><trkpt lat="51.9623396918" lon="-2.2033368889"><ele>7.35</ele><time>2011-10-26T10:52:04Z</time></trkpt><trkpt lat="51.9622971117" lon="-2.2034694906"><ele>6.87</ele><time>2011-10-26T10:52:13Z</time></trkpt><trkpt lat="51.9622808509" lon="-2.2035369650"><ele>7.35</ele><time>2011-10-26T10:52:18Z</time></trkpt><trkpt lat="51.9622436352" lon="-2.2036595084"><ele>7.35</ele><time>2011-10-26T10:52:25Z</time></trkpt><trkpt lat="51.9622080121" lon="-2.2037750948"><ele>7.35</ele><time>2011-10-26T10:52:33Z</time></trkpt><trkpt lat="51.9621688686" lon="-2.2038934473"><ele>7.35</ele><time>2011-10-26T10:52:41Z</time></trkpt><trkpt lat="51.9621246960" lon="-2.2040108778"><ele>7.35</ele><time>2011-10-26T10:52:50Z</time></trkpt><trkpt lat="51.9620743208" lon="-2.2041315772"><ele>7.35</ele><time>2011-10-26T10:52:59Z</time></trkpt><trkpt lat="51.9620366022" lon="-2.2042443138"><ele>7.35</ele><time>2011-10-26T10:53:08Z</time></trkpt><trkpt lat="51.9619885739" lon="-2.2043696232"><ele>7.83</ele><time>2011-10-26T10:53:18Z</time></trkpt><trkpt lat="51.9619464967" lon="-2.2044805996"><ele>7.35</ele><time>2011-10-26T10:53:26Z</time></trkpt><trkpt lat="51.9619075209" lon="-2.2045841999"><ele>7.35</ele><time>2011-10-26T10:53:34Z</time></trkpt><trkpt lat="51.9618812017" lon="-2.2046675999"><ele>7.35</ele><time>2011-10-26T10:53:41Z</time></trkpt><trkpt lat="51.9618330058" lon="-2.2047847789"><ele>7.35</ele><time>2011-10-26T10:53:50Z</time></trkpt><trkpt lat="51.9617854804" lon="-2.2049045563"><ele>7.35</ele><time>2011-10-26T10:53:59Z</time></trkpt><trkpt lat="51.9617287349" lon="-2.2050201427"><ele>6.87</ele><time>2011-10-26T10:54:07Z</time></trkpt><trkpt lat="51.9616791140" lon="-2.2051431052"><ele>7.35</ele><time>2011-10-26T10:54:16Z</time></trkpt><trkpt lat="51.9616339356" lon="-2.2052482981"><ele>7.83</ele><time>2011-10-26T10:54:25Z</time></trkpt><trkpt lat="51.9615824707" lon="-2.2053830791"><ele>7.83</ele><time>2011-10-26T10:54:35Z</time></trkpt><trkpt lat="51.9615428243" lon="-2.2054791357"><ele>7.83</ele><time>2011-10-26T10:54:43Z</time></trkpt><trkpt lat="51.9615034293" lon="-2.2056065407"><ele>7.35</ele><time>2011-10-26T10:54:52Z</time></trkpt><trkpt lat="51.9614540599" lon="-2.2057475243"><ele>7.35</ele><time>2011-10-26T10:55:01Z</time></trkpt><trkpt lat="51.9614071213" lon="-2.2058434132"><ele>7.83</ele><time>2011-10-26T10:55:09Z</time></trkpt><trkpt lat="51.9613690674" lon="-2.2059325129"><ele>7.35</ele><time>2011-10-26T10:55:17Z</time></trkpt><trkpt lat="51.9613098074" lon="-2.2060580738"><ele>7.35</ele><time>2011-10-26T10:55:27Z</time></trkpt><trkpt lat="51.9612557441" lon="-2.2061802819"><ele>7.83</ele><time>2011-10-26T10:55:35Z</time></trkpt><trkpt lat="51.9612106495" lon="-2.2062569764"><ele>7.35</ele><time>2011-10-26T10:55:42Z</time></trkpt><trkpt lat="51.9611694105" lon="-2.2063342575"><ele>7.83</ele><time>2011-10-26T10:55:49Z</time></trkpt><trkpt lat="51.9611058757" lon="-2.2064448986"><ele>7.83</ele><time>2011-10-26T10:55:58Z</time></trkpt><trkpt lat="51.9610702526" lon="-2.2065267060"><ele>7.35</ele><time>2011-10-26T10:56:05Z</time></trkpt><trkpt lat="51.9610301033" lon="-2.2066059150"><ele>7.35</ele><time>2011-10-26T10:56:13Z</time></trkpt><trkpt lat="51.9609782193" lon="-2.2067396063"><ele>7.35</ele><time>2011-10-26T10:56:22Z</time></trkpt><trkpt lat="51.9609742798" lon="-2.2067499161"><ele>7.35</ele><time>2011-10-26T10:56:23Z</time></trkpt><trkpt lat="51.9609185401" lon="-2.2068592161"><ele>7.83</ele><time>2011-10-26T10:56:33Z</time></trkpt><trkpt lat="51.9608608726" lon="-2.2069611400"><ele>7.83</ele><time>2011-10-26T10:56:42Z</time></trkpt><trkpt lat="51.9607949909" lon="-2.2070437018"><ele>7.35</ele><time>2011-10-26T10:56:53Z</time></trkpt><trkpt lat="51.9607799873" lon="-2.2070773132"><ele>7.83</ele><time>2011-10-26T10:57:02Z</time></trkpt><trkpt lat="51.9607636426" lon="-2.2071512416"><ele>7.83</ele><time>2011-10-26T10:57:10Z</time></trkpt><trkpt lat="51.9607480522" lon="-2.2072436940"><ele>7.83</ele><time>2011-10-26T10:57:17Z</time></trkpt><trkpt lat="51.9607069809" lon="-2.2073892877"><ele>7.83</ele><time>2011-10-26T10:57:26Z</time></trkpt><trkpt lat="51.9607011974" lon="-2.2074033692"><ele>8.31</ele><time>2011-10-26T10:57:27Z</time></trkpt><trkpt lat="51.9606459606" lon="-2.2075565904"><ele>8.31</ele><time>2011-10-26T10:57:36Z</time></trkpt><trkpt lat="51.9606103376" lon="-2.2076574247"><ele>8.31</ele><time>2011-10-26T10:57:43Z</time></trkpt><trkpt lat="51.9605944119" lon="-2.2077007592"><ele>7.83</ele><time>2011-10-26T10:57:46Z</time></trkpt><trkpt lat="51.9605543464" lon="-2.2078044433"><ele>7.35</ele><time>2011-10-26T10:57:53Z</time></trkpt><trkpt lat="51.9605134428" lon="-2.2079176828"><ele>7.83</ele><time>2011-10-26T10:58:01Z</time></trkpt><trkpt lat="51.9604522549" lon="-2.2080123983"><ele>7.83</ele><time>2011-10-26T10:58:11Z</time></trkpt><trkpt lat="51.9603831880" lon="-2.2081073653"><ele>7.83</ele><time>2011-10-26T10:58:21Z</time></trkpt><trkpt lat="51.9603365846" lon="-2.2082027514"><ele>7.83</ele><time>2011-10-26T10:58:28Z</time></trkpt><trkpt lat="51.9602718763" lon="-2.2083366103"><ele>7.83</ele><time>2011-10-26T10:58:39Z</time></trkpt><trkpt lat="51.9602283742" lon="-2.2083828785"><ele>7.35</ele><time>2011-10-26T10:58:45Z</time></trkpt><trkpt lat="51.9601827767" lon="-2.2085229401"><ele>7.35</ele><time>2011-10-26T10:58:52Z</time></trkpt><trkpt lat="51.9601156376" lon="-2.2086290549"><ele>7.83</ele><time>2011-10-26T10:59:01Z</time></trkpt><trkpt lat="51.9600601494" lon="-2.2087173164"><ele>7.83</ele><time>2011-10-26T10:59:09Z</time></trkpt><trkpt lat="51.9600012247" lon="-2.2087990399"><ele>7.83</ele><time>2011-10-26T10:59:18Z</time></trkpt><trkpt lat="51.9599195011" lon="-2.2089606430"><ele>7.35</ele><time>2011-10-26T10:59:29Z</time></trkpt><trkpt lat="51.9598964509" lon="-2.2089931648"><ele>7.35</ele><time>2011-10-26T10:59:32Z</time></trkpt><trkpt lat="51.9598156493" lon="-2.2090790793"><ele>7.83</ele><time>2011-10-26T10:59:42Z</time></trkpt><trkpt lat="51.9597465824" lon="-2.2091770638"><ele>7.83</ele><time>2011-10-26T10:59:52Z</time></trkpt><trkpt lat="51.9596692175" lon="-2.2093135212"><ele>7.35</ele><time>2011-10-26T11:00:01Z</time></trkpt><trkpt lat="51.9596111309" lon="-2.2093937360"><ele>7.83</ele><time>2011-10-26T11:00:09Z</time></trkpt><trkpt lat="51.9595524576" lon="-2.2094762139"><ele>7.83</ele><time>2011-10-26T11:00:17Z</time></trkpt><trkpt lat="51.9594869111" lon="-2.2095564287"><ele>7.35</ele><time>2011-10-26T11:00:25Z</time></trkpt><trkpt lat="51.9594183471" lon="-2.2096652258"><ele>7.83</ele><time>2011-10-26T11:00:34Z</time></trkpt><trkpt lat="51.9593560696" lon="-2.2097463626"><ele>7.35</ele><time>2011-10-26T11:00:42Z</time></trkpt><trkpt lat="51.9593212847" lon="-2.2097836621"><ele>7.35</ele><time>2011-10-26T11:00:46Z</time></trkpt><trkpt lat="51.9593044370" lon="-2.2098078858"><ele>7.35</ele><time>2011-10-26T11:00:48Z</time></trkpt><trkpt lat="51.9592222106" lon="-2.2098925430"><ele>7.35</ele><time>2011-10-26T11:00:58Z</time></trkpt><trkpt lat="51.9591475278" lon="-2.2099519707"><ele>6.87</ele><time>2011-10-26T11:01:07Z</time></trkpt><trkpt lat="51.9590414129" lon="-2.2100143321"><ele>6.39</ele><time>2011-10-26T11:01:18Z</time></trkpt><trkpt lat="51.9589935523" lon="-2.2100452613"><ele>6.87</ele><time>2011-10-26T11:01:25Z</time></trkpt><trkpt lat="51.9589295145" lon="-2.2100867517"><ele>6.87</ele><time>2011-10-26T11:01:33Z</time></trkpt><trkpt lat="51.9588669855" lon="-2.2101181000"><ele>7.35</ele><time>2011-10-26T11:01:40Z</time></trkpt><trkpt lat="51.9587917160" lon="-2.2101549804"><ele>6.87</ele><time>2011-10-26T11:01:47Z</time></trkpt><trkpt lat="51.9587203860" lon="-2.2101865802"><ele>6.39</ele><time>2011-10-26T11:01:54Z</time></trkpt><trkpt lat="51.9586468767" lon="-2.2102417331"><ele>6.39</ele><time>2011-10-26T11:02:01Z</time></trkpt><trkpt lat="51.9585780613" lon="-2.2102947906"><ele>6.39</ele><time>2011-10-26T11:02:08Z</time></trkpt><trkpt lat="51.9585229084" lon="-2.2103351913"><ele>6.39</ele><time>2011-10-26T11:02:14Z</time></trkpt><trkpt lat="51.9584399275" lon="-2.2103812080"><ele>6.87</ele><time>2011-10-26T11:02:21Z</time></trkpt><trkpt lat="51.9583711959" lon="-2.2104290687"><ele>6.39</ele><time>2011-10-26T11:02:28Z</time></trkpt><trkpt lat="51.9583056495" lon="-2.2104703076"><ele>6.87</ele><time>2011-10-26T11:02:35Z</time></trkpt><trkpt lat="51.9582261052" lon="-2.2105207667"><ele>6.87</ele><time>2011-10-26T11:02:44Z</time></trkpt><trkpt lat="51.9581708685" lon="-2.2105598263"><ele>6.87</ele><time>2011-10-26T11:02:51Z</time></trkpt><trkpt lat="51.9580809306" lon="-2.2106148116"><ele>6.39</ele><time>2011-10-26T11:03:01Z</time></trkpt><trkpt lat="51.9580109417" lon="-2.2106705513"><ele>6.87</ele><time>2011-10-26T11:03:09Z</time></trkpt><trkpt lat="51.9579339121" lon="-2.2107184120"><ele>6.39</ele><time>2011-10-26T11:03:17Z</time></trkpt><trkpt lat="51.9578915834" lon="-2.2107517719"><ele>6.87</ele><time>2011-10-26T11:03:21Z</time></trkpt><trkpt lat="51.9577788468" lon="-2.2108162288"><ele>6.87</ele><time>2011-10-26T11:03:31Z</time></trkpt><trkpt lat="51.9576928485" lon="-2.2108646762"><ele>5.91</ele><time>2011-10-26T11:03:42Z</time></trkpt><trkpt lat="51.9576271344" lon="-2.2108967789"><ele>6.39</ele><time>2011-10-26T11:03:50Z</time></trkpt><trkpt lat="51.9575983007" lon="-2.2109067533"><ele>4.46</ele><time>2011-10-26T11:03:53Z</time></trkpt><trkpt lat="51.9575237855" lon="-2.2109649237"><ele>5.91</ele><time>2011-10-26T11:04:02Z</time></trkpt><trkpt lat="51.9574641902" lon="-2.2110255249"><ele>5.91</ele><time>2011-10-26T11:04:09Z</time></trkpt><trkpt lat="51.9574310817" lon="-2.2110459767"><ele>5.91</ele><time>2011-10-26T11:04:12Z</time></trkpt><trkpt lat="51.9573429879" lon="-2.2110968549"><ele>6.39</ele><time>2011-10-26T11:04:20Z</time></trkpt><trkpt lat="51.9572808780" lon="-2.2111403570"><ele>6.39</ele><time>2011-10-26T11:04:26Z</time></trkpt><trkpt lat="51.9572694786" lon="-2.2111427039"><ele>6.39</ele><time>2011-10-26T11:04:29Z</time></trkpt><trkpt lat="51.9571868330" lon="-2.2111808416"><ele>6.39</ele><time>2011-10-26T11:04:38Z</time></trkpt><trkpt lat="51.9571751822" lon="-2.2111789137"><ele>6.39</ele><time>2011-10-26T11:04:47Z</time></trkpt><trkpt lat="51.9571683090" lon="-2.2111748066"><ele>6.39</ele><time>2011-10-26T11:04:55Z</time></trkpt><trkpt lat="51.9571593404" lon="-2.2111800034"><ele>6.87</ele><time>2011-10-26T11:05:00Z</time></trkpt><trkpt lat="51.9570830651" lon="-2.2112342343"><ele>5.91</ele><time>2011-10-26T11:05:09Z</time></trkpt><trkpt lat="51.9570015930" lon="-2.2112741321"><ele>6.39</ele><time>2011-10-26T11:05:17Z</time></trkpt><trkpt lat="51.9569279160" lon="-2.2113042232"><ele>6.87</ele><time>2011-10-26T11:05:25Z</time></trkpt><trkpt lat="51.9568495452" lon="-2.2113228310"><ele>6.87</ele><time>2011-10-26T11:05:33Z</time></trkpt><trkpt lat="51.9567528181" lon="-2.2113755532"><ele>7.35</ele><time>2011-10-26T11:05:43Z</time></trkpt><trkpt lat="51.9566818234" lon="-2.2113946639"><ele>6.87</ele><time>2011-10-26T11:05:50Z</time></trkpt><trkpt lat="51.9566196296" lon="-2.2114360705"><ele>6.39</ele><time>2011-10-26T11:05:57Z</time></trkpt><trkpt lat="51.9565415103" lon="-2.2114621382"><ele>6.87</ele><time>2011-10-26T11:06:05Z</time></trkpt><trkpt lat="51.9564685877" lon="-2.2114946600"><ele>6.87</ele><time>2011-10-26T11:06:13Z</time></trkpt><trkpt lat="51.9563777279" lon="-2.2115485556"><ele>6.87</ele><time>2011-10-26T11:06:22Z</time></trkpt><trkpt lat="51.9563079905" lon="-2.2115716897"><ele>7.35</ele><time>2011-10-26T11:06:30Z</time></trkpt><trkpt lat="51.9562091678" lon="-2.2116187122"><ele>6.87</ele><time>2011-10-26T11:06:40Z</time></trkpt><trkpt lat="51.9561180566" lon="-2.2116553411"><ele>6.39</ele><time>2011-10-26T11:06:49Z</time></trkpt><trkpt lat="51.9560544379" lon="-2.2116779722"><ele>6.87</ele><time>2011-10-26T11:06:56Z</time></trkpt><trkpt lat="51.9559902325" lon="-2.2117090691"><ele>7.35</ele><time>2011-10-26T11:07:03Z</time></trkpt><trkpt lat="51.9559215847" lon="-2.2117443569"><ele>7.35</ele><time>2011-10-26T11:07:10Z</time></trkpt><trkpt lat="51.9558941759" lon="-2.2117644735"><ele>7.35</ele><time>2011-10-26T11:07:13Z</time></trkpt><trkpt lat="51.9557951018" lon="-2.2118029464"><ele>7.35</ele><time>2011-10-26T11:07:23Z</time></trkpt><trkpt lat="51.9557887316" lon="-2.2118051257"><ele>7.35</ele><time>2011-10-26T11:07:24Z</time></trkpt><trkpt lat="51.9557031523" lon="-2.2118339594"><ele>6.39</ele><time>2011-10-26T11:07:32Z</time></trkpt><trkpt lat="51.9556316547" lon="-2.2118560039"><ele>7.35</ele><time>2011-10-26T11:07:39Z</time></trkpt><trkpt lat="51.9555703830" lon="-2.2118904535"><ele>6.87</ele><time>2011-10-26T11:07:45Z</time></trkpt><trkpt lat="51.9554879889" lon="-2.2119330335"><ele>7.83</ele><time>2011-10-26T11:07:54Z</time></trkpt><trkpt lat="51.9554127194" lon="-2.2119746078"><ele>7.35</ele><time>2011-10-26T11:08:02Z</time></trkpt><trkpt lat="51.9553352706" lon="-2.2120155953"><ele>7.35</ele><time>2011-10-26T11:08:10Z</time></trkpt><trkpt lat="51.9552494399" lon="-2.2120482847"><ele>7.83</ele><time>2011-10-26T11:08:18Z</time></trkpt><trkpt lat="51.9551787805" lon="-2.2120793816"><ele>7.83</ele><time>2011-10-26T11:08:25Z</time></trkpt><trkpt lat="51.9550969731" lon="-2.2121081315"><ele>7.83</ele><time>2011-10-26T11:08:34Z</time></trkpt><trkpt lat="51.9549947139" lon="-2.2121408209"><ele>7.35</ele><time>2011-10-26T11:08:44Z</time></trkpt><trkpt lat="51.9549156725" lon="-2.2121686488"><ele>6.87</ele><time>2011-10-26T11:08:52Z</time></trkpt><trkpt lat="51.9548561610" lon="-2.2121897712"><ele>7.83</ele><time>2011-10-26T11:08:59Z</time></trkpt><trkpt lat="51.9548413251" lon="-2.2121944651"><ele>7.83</ele><time>2011-10-26T11:09:01Z</time></trkpt><trkpt lat="51.9548129942" lon="-2.2122116480"><ele>7.83</ele><time>2011-10-26T11:09:04Z</time></trkpt><trkpt lat="51.9547705818" lon="-2.2122316808"><ele>7.83</ele><time>2011-10-26T11:09:08Z</time></trkpt><trkpt lat="51.9546823204" lon="-2.2122619394"><ele>8.31</ele><time>2011-10-26T11:09:16Z</time></trkpt><trkpt lat="51.9546105713" lon="-2.2122860793"><ele>7.83</ele><time>2011-10-26T11:09:23Z</time></trkpt><trkpt lat="51.9545470364" lon="-2.2123106383"><ele>7.83</ele><time>2011-10-26T11:09:30Z</time></trkpt><trkpt lat="51.9544652291" lon="-2.2123444173"><ele>7.83</ele><time>2011-10-26T11:09:38Z</time></trkpt><trkpt lat="51.9543990120" lon="-2.2123637795"><ele>8.31</ele><time>2011-10-26T11:09:45Z</time></trkpt><trkpt lat="51.9543024525" lon="-2.2123834770"><ele>8.79</ele><time>2011-10-26T11:09:55Z</time></trkpt><trkpt lat="51.9542329665" lon="-2.2123962175"><ele>8.31</ele><time>2011-10-26T11:10:02Z</time></trkpt><trkpt lat="51.9541484769" lon="-2.2124180105"><ele>8.31</ele><time>2011-10-26T11:10:11Z</time></trkpt><trkpt lat="51.9540643226" lon="-2.2124453355"><ele>8.31</ele><time>2011-10-26T11:10:19Z</time></trkpt><trkpt lat="51.9539837725" lon="-2.2124641947"><ele>8.31</ele><time>2011-10-26T11:10:27Z</time></trkpt><trkpt lat="51.9539037254" lon="-2.2124723252"><ele>8.31</ele><time>2011-10-26T11:10:35Z</time></trkpt><trkpt lat="51.9538133685" lon="-2.2124613449"><ele>8.31</ele><time>2011-10-26T11:10:45Z</time></trkpt><trkpt lat="51.9537581317" lon="-2.2124146577"><ele>8.31</ele><time>2011-10-26T11:10:54Z</time></trkpt><trkpt lat="51.9537562039" lon="-2.2124108858"><ele>7.83</ele><time>2011-10-26T11:11:04Z</time></trkpt><trkpt lat="51.9537484925" lon="-2.2124226205"><ele>8.79</ele><time>2011-10-26T11:11:12Z</time></trkpt><trkpt lat="51.9536563754" lon="-2.2124694753"><ele>8.31</ele><time>2011-10-26T11:11:20Z</time></trkpt><trkpt lat="51.9535738975" lon="-2.2125033382"><ele>8.31</ele><time>2011-10-26T11:11:28Z</time></trkpt><trkpt lat="51.9535164814" lon="-2.2125693038"><ele>8.31</ele><time>2011-10-26T11:11:35Z</time></trkpt><trkpt lat="51.9534571376" lon="-2.2126318328"><ele>8.31</ele><time>2011-10-26T11:11:43Z</time></trkpt><trkpt lat="51.9534272142" lon="-2.2126347665"><ele>7.83</ele><time>2011-10-26T11:11:46Z</time></trkpt><trkpt lat="51.9533507712" lon="-2.2126238700"><ele>8.31</ele><time>2011-10-26T11:11:54Z</time></trkpt><trkpt lat="51.9532833807" lon="-2.2126149852"><ele>8.79</ele><time>2011-10-26T11:12:02Z</time></trkpt><trkpt lat="51.9532351010" lon="-2.2126037534"><ele>8.79</ele><time>2011-10-26T11:12:10Z</time></trkpt><trkpt lat="51.9531884138" lon="-2.2126178350"><ele>8.79</ele><time>2011-10-26T11:12:18Z</time></trkpt><trkpt lat="51.9531378709" lon="-2.2126418911"><ele>7.83</ele><time>2011-10-26T11:12:23Z</time></trkpt><trkpt lat="51.9530511182" lon="-2.2127060965"><ele>8.79</ele><time>2011-10-26T11:12:32Z</time></trkpt><trkpt lat="51.9529988989" lon="-2.2127174120"><ele>8.79</ele><time>2011-10-26T11:12:39Z</time></trkpt><trkpt lat="51.9529919419" lon="-2.2127201781"><ele>8.79</ele><time>2011-10-26T11:12:40Z</time></trkpt><trkpt lat="51.9529232942" lon="-2.2127553821"><ele>8.79</ele><time>2011-10-26T11:12:47Z</time></trkpt><trkpt lat="51.9528721645" lon="-2.2128194198"><ele>8.31</ele><time>2011-10-26T11:12:54Z</time></trkpt><trkpt lat="51.9528123178" lon="-2.2128822841"><ele>8.79</ele><time>2011-10-26T11:13:02Z</time></trkpt><trkpt lat="51.9527771138" lon="-2.2128951922"><ele>7.83</ele><time>2011-10-26T11:13:09Z</time></trkpt><trkpt lat="51.9527771138" lon="-2.2128951922"><ele>8.31</ele><time>2011-10-26T11:13:18Z</time></trkpt><trkpt lat="51.9527771138" lon="-2.2128951922"><ele>8.31</ele><time>2011-10-26T11:13:31Z</time></trkpt><trkpt lat="51.9527500402" lon="-2.2129318211"><ele>7.83</ele><time>2011-10-26T11:13:37Z</time></trkpt><trkpt lat="51.9527134113" lon="-2.2129654326"><ele>7.83</ele><time>2011-10-26T11:13:42Z</time></trkpt><trkpt lat="51.9526393153" lon="-2.2130246926"><ele>7.83</ele><time>2011-10-26T11:13:49Z</time></trkpt><trkpt lat="51.9525551610" lon="-2.2130910773"><ele>8.31</ele><time>2011-10-26T11:13:56Z</time></trkpt><trkpt lat="51.9525138382" lon="-2.2131199110"><ele>7.83</ele><time>2011-10-26T11:14:00Z</time></trkpt><trkpt lat="51.9524157699" lon="-2.2132023051"><ele>8.31</ele><time>2011-10-26T11:14:09Z</time></trkpt><trkpt lat="51.9523292687" lon="-2.2132729646"><ele>8.31</ele><time>2011-10-26T11:14:18Z</time></trkpt><trkpt lat="51.9522470422" lon="-2.2133530118"><ele>8.31</ele><time>2011-10-26T11:14:27Z</time></trkpt><trkpt lat="51.9521852676" lon="-2.2134102602"><ele>8.31</ele><time>2011-10-26T11:14:34Z</time></trkpt><trkpt lat="51.9521048013" lon="-2.2134748846"><ele>8.31</ele><time>2011-10-26T11:14:42Z</time></trkpt><trkpt lat="51.9520302862" lon="-2.2135648225"><ele>7.83</ele><time>2011-10-26T11:14:50Z</time></trkpt><trkpt lat="51.9519460481" lon="-2.2136401758"><ele>8.31</ele><time>2011-10-26T11:14:59Z</time></trkpt><trkpt lat="51.9518735446" lon="-2.2137246653"><ele>8.31</ele><time>2011-10-26T11:15:07Z</time></trkpt><trkpt lat="51.9517931622" lon="-2.2138109151"><ele>7.83</ele><time>2011-10-26T11:15:16Z</time></trkpt><trkpt lat="51.9517442118" lon="-2.2138723545"><ele>7.35</ele><time>2011-10-26T11:15:22Z</time></trkpt><trkpt lat="51.9517206587" lon="-2.2139050439"><ele>7.83</ele><time>2011-10-26T11:15:25Z</time></trkpt><trkpt lat="51.9516380969" lon="-2.2139910422"><ele>7.83</ele><time>2011-10-26T11:15:34Z</time></trkpt><trkpt lat="51.9515561219" lon="-2.2140901163"><ele>7.83</ele><time>2011-10-26T11:15:43Z</time></trkpt><trkpt lat="51.9514824450" lon="-2.2141798865"><ele>8.31</ele><time>2011-10-26T11:15:52Z</time></trkpt><trkpt lat="51.9514039904" lon="-2.2142816428"><ele>8.79</ele><time>2011-10-26T11:16:02Z</time></trkpt><trkpt lat="51.9513350073" lon="-2.2143688984"><ele>8.31</ele><time>2011-10-26T11:16:10Z</time></trkpt><trkpt lat="51.9512749929" lon="-2.2144594230"><ele>8.31</ele><time>2011-10-26T11:16:18Z</time></trkpt><trkpt lat="51.9512062613" lon="-2.2145658731"><ele>8.31</ele><time>2011-10-26T11:16:26Z</time></trkpt><trkpt lat="51.9511301536" lon="-2.2146881651"><ele>8.31</ele><time>2011-10-26T11:16:36Z</time></trkpt><trkpt lat="51.9510847237" lon="-2.2147784382"><ele>8.79</ele><time>2011-10-26T11:16:43Z</time></trkpt><trkpt lat="51.9510256313" lon="-2.2148698010"><ele>8.79</ele><time>2011-10-26T11:16:50Z</time></trkpt><trkpt lat="51.9509848114" lon="-2.2149622533"><ele>8.31</ele><time>2011-10-26T11:16:57Z</time></trkpt><trkpt lat="51.9509231206" lon="-2.2150733136"><ele>8.31</ele><time>2011-10-26T11:17:05Z</time></trkpt><trkpt lat="51.9508742541" lon="-2.2151585575"><ele>8.79</ele><time>2011-10-26T11:17:12Z</time></trkpt><trkpt lat="51.9508196879" lon="-2.2152843699"><ele>8.31</ele><time>2011-10-26T11:17:21Z</time></trkpt><trkpt lat="51.9507604279" lon="-2.2153934184"><ele>8.79</ele><time>2011-10-26T11:17:29Z</time></trkpt><trkpt lat="51.9507152494" lon="-2.2155029699"><ele>8.31</ele><time>2011-10-26T11:17:37Z</time></trkpt><trkpt lat="51.9506552350" lon="-2.2156542633"><ele>8.31</ele><time>2011-10-26T11:17:47Z</time></trkpt><trkpt lat="51.9505968131" lon="-2.2157856915"><ele>8.79</ele><time>2011-10-26T11:17:56Z</time></trkpt><trkpt lat="51.9505381398" lon="-2.2159174550"><ele>8.79</ele><time>2011-10-26T11:18:05Z</time></trkpt><trkpt lat="51.9504906144" lon="-2.2160235699"><ele>8.31</ele><time>2011-10-26T11:18:13Z</time></trkpt><trkpt lat="51.9504488725" lon="-2.2161185369"><ele>8.31</ele><time>2011-10-26T11:18:20Z</time></trkpt><trkpt lat="51.9504033588" lon="-2.2162380628"><ele>8.79</ele><time>2011-10-26T11:18:28Z</time></trkpt><trkpt lat="51.9503412489" lon="-2.2163642943"><ele>8.79</ele><time>2011-10-26T11:18:37Z</time></trkpt><trkpt lat="51.9502977468" lon="-2.2164783720"><ele>8.79</ele><time>2011-10-26T11:18:45Z</time></trkpt><trkpt lat="51.9502515625" lon="-2.2165627778"><ele>8.79</ele><time>2011-10-26T11:18:52Z</time></trkpt><trkpt lat="51.9502068870" lon="-2.2166631930"><ele>8.31</ele><time>2011-10-26T11:19:00Z</time></trkpt><trkpt lat="51.9501724374" lon="-2.2168043442"><ele>8.31</ele><time>2011-10-26T11:19:10Z</time></trkpt><trkpt lat="51.9501681626" lon="-2.2168182582"><ele>8.31</ele><time>2011-10-26T11:19:11Z</time></trkpt><trkpt lat="51.9501606189" lon="-2.2168598324"><ele>8.31</ele><time>2011-10-26T11:19:13Z</time></trkpt><trkpt lat="51.9501374848" lon="-2.2170190886"><ele>8.31</ele><time>2011-10-26T11:19:23Z</time></trkpt><trkpt lat="51.9501224812" lon="-2.2171590663"><ele>8.79</ele><time>2011-10-26T11:19:32Z</time></trkpt><trkpt lat="51.9500971679" lon="-2.2173305601"><ele>8.79</ele><time>2011-10-26T11:19:42Z</time></trkpt><trkpt lat="51.9500841759" lon="-2.2174776625"><ele>8.31</ele><time>2011-10-26T11:19:50Z</time></trkpt><trkpt lat="51.9500767998" lon="-2.2176121920"><ele>8.79</ele><time>2011-10-26T11:19:58Z</time></trkpt><trkpt lat="51.9500609580" lon="-2.2177520022"><ele>8.79</ele><time>2011-10-26T11:20:06Z</time></trkpt><trkpt lat="51.9500555936" lon="-2.2178913932"><ele>8.79</ele><time>2011-10-26T11:20:14Z</time></trkpt><trkpt lat="51.9500490557" lon="-2.2180396691"><ele>8.79</ele><time>2011-10-26T11:20:23Z</time></trkpt><trkpt lat="51.9500419311" lon="-2.2182155214"><ele>9.27</ele><time>2011-10-26T11:20:33Z</time></trkpt><trkpt lat="51.9500414282" lon="-2.2183645517"><ele>8.79</ele><time>2011-10-26T11:20:42Z</time></trkpt><trkpt lat="51.9500369020" lon="-2.2185019311"><ele>9.27</ele><time>2011-10-26T11:20:50Z</time></trkpt><trkpt lat="51.9500438590" lon="-2.2185453493"><ele>9.27</ele><time>2011-10-26T11:20:53Z</time></trkpt><trkpt lat="51.9500459544" lon="-2.2187052760"><ele>9.27</ele><time>2011-10-26T11:21:02Z</time></trkpt><trkpt lat="51.9500565995" lon="-2.2188511211"><ele>9.27</ele><time>2011-10-26T11:21:11Z</time></trkpt><trkpt lat="51.9500708487" lon="-2.2189933620"><ele>8.79</ele><time>2011-10-26T11:21:20Z</time></trkpt><trkpt lat="51.9500965811" lon="-2.2191370279"><ele>9.27</ele><time>2011-10-26T11:21:29Z</time></trkpt><trkpt lat="51.9501227327" lon="-2.2192886565"><ele>8.79</ele><time>2011-10-26T11:21:38Z</time></trkpt><trkpt lat="51.9501526561" lon="-2.2194109485"><ele>8.79</ele><time>2011-10-26T11:21:46Z</time></trkpt><trkpt lat="51.9501706772" lon="-2.2195031494"><ele>8.79</ele><time>2011-10-26T11:21:52Z</time></trkpt><trkpt lat="51.9502094854" lon="-2.2196411993"><ele>8.79</ele><time>2011-10-26T11:22:01Z</time></trkpt><trkpt lat="51.9502440188" lon="-2.2197535168"><ele>9.27</ele><time>2011-10-26T11:22:08Z</time></trkpt><trkpt lat="51.9502875209" lon="-2.2198691871"><ele>9.27</ele><time>2011-10-26T11:22:16Z</time></trkpt><trkpt lat="51.9503326993" lon="-2.2200028785"><ele>9.27</ele><time>2011-10-26T11:22:25Z</time></trkpt><trkpt lat="51.9503784645" lon="-2.2201282717"><ele>8.79</ele><time>2011-10-26T11:22:34Z</time></trkpt><trkpt lat="51.9504352100" lon="-2.2202437744"><ele>8.79</ele><time>2011-10-26T11:22:42Z</time></trkpt><trkpt lat="51.9504776224" lon="-2.2203732748"><ele>8.79</ele><time>2011-10-26T11:22:51Z</time></trkpt><trkpt lat="51.9505269080" lon="-2.2205255739"><ele>8.79</ele><time>2011-10-26T11:23:01Z</time></trkpt><trkpt lat="51.9505740982" lon="-2.2206590138"><ele>9.27</ele><time>2011-10-26T11:23:10Z</time></trkpt><trkpt lat="51.9506107271" lon="-2.2207765281"><ele>9.27</ele><time>2011-10-26T11:23:18Z</time></trkpt><trkpt lat="51.9506615214" lon="-2.2209111415"><ele>9.27</ele><time>2011-10-26T11:23:27Z</time></trkpt><trkpt lat="51.9506992400" lon="-2.2210640274"><ele>9.27</ele><time>2011-10-26T11:23:37Z</time></trkpt><trkpt lat="51.9507509563" lon="-2.2212325875"><ele>9.27</ele><time>2011-10-26T11:23:48Z</time></trkpt><trkpt lat="51.9507906865" lon="-2.2213837970"><ele>9.27</ele><time>2011-10-26T11:23:58Z</time></trkpt><trkpt lat="51.9508183468" lon="-2.2215204220"><ele>9.27</ele><time>2011-10-26T11:24:06Z</time></trkpt><trkpt lat="51.9508474320" lon="-2.2216849588"><ele>9.75</ele><time>2011-10-26T11:24:15Z</time></trkpt><trkpt lat="51.9508725777" lon="-2.2218455561"><ele>9.75</ele><time>2011-10-26T11:24:25Z</time></trkpt><trkpt lat="51.9508896768" lon="-2.2219917364"><ele>9.75</ele><time>2011-10-26T11:24:33Z</time></trkpt><trkpt lat="51.9509034231" lon="-2.2221258469"><ele>10.23</ele><time>2011-10-26T11:24:41Z</time></trkpt><trkpt lat="51.9508904312" lon="-2.2222929820"><ele>9.75</ele><time>2011-10-26T11:24:51Z</time></trkpt><trkpt lat="51.9508846477" lon="-2.2223657370"><ele>9.75</ele><time>2011-10-26T11:24:55Z</time></trkpt><trkpt lat="51.9508706499" lon="-2.2224657331"><ele>10.23</ele><time>2011-10-26T11:25:01Z</time></trkpt><trkpt lat="51.9508551434" lon="-2.2225974128"><ele>9.75</ele><time>2011-10-26T11:25:09Z</time></trkpt><trkpt lat="51.9508339372" lon="-2.2227380611"><ele>9.75</ele><time>2011-10-26T11:25:18Z</time></trkpt><trkpt lat="51.9508269802" lon="-2.2227690741"><ele>9.75</ele><time>2011-10-26T11:25:20Z</time></trkpt><trkpt lat="51.9508095458" lon="-2.2228936292"><ele>9.75</ele><time>2011-10-26T11:25:28Z</time></trkpt><trkpt lat="51.9507902674" lon="-2.2230234649"><ele>9.27</ele><time>2011-10-26T11:25:37Z</time></trkpt><trkpt lat="51.9507873338" lon="-2.2230350319"><ele>9.27</ele><time>2011-10-26T11:25:38Z</time></trkpt><trkpt lat="51.9507760182" lon="-2.2230685595"><ele>10.23</ele><time>2011-10-26T11:25:40Z</time></trkpt><trkpt lat="51.9507297501" lon="-2.2232289892"><ele>9.75</ele><time>2011-10-26T11:25:50Z</time></trkpt><trkpt lat="51.9506701548" lon="-2.2234258801"><ele>9.75</ele><time>2011-10-26T11:26:02Z</time></trkpt><trkpt lat="51.9506311789" lon="-2.2235219367"><ele>9.75</ele><time>2011-10-26T11:26:08Z</time></trkpt><trkpt lat="51.9506139960" lon="-2.2235750780"><ele>9.27</ele><time>2011-10-26T11:26:12Z</time></trkpt><trkpt lat="51.9505518023" lon="-2.2237249464"><ele>9.27</ele><time>2011-10-26T11:26:23Z</time></trkpt><trkpt lat="51.9505074620" lon="-2.2238187399"><ele>9.75</ele><time>2011-10-26T11:26:30Z</time></trkpt><trkpt lat="51.9504495431" lon="-2.2239319794"><ele>9.75</ele><time>2011-10-26T11:26:39Z</time></trkpt><trkpt lat="51.9504036102" lon="-2.2240211628"><ele>9.27</ele><time>2011-10-26T11:26:46Z</time></trkpt><trkpt lat="51.9503490441" lon="-2.2241147049"><ele>9.75</ele><time>2011-10-26T11:26:54Z</time></trkpt><trkpt lat="51.9502851740" lon="-2.2242184728"><ele>9.75</ele><time>2011-10-26T11:27:03Z</time></trkpt><trkpt lat="51.9502153527" lon="-2.2243387531"><ele>9.75</ele><time>2011-10-26T11:27:12Z</time></trkpt><trkpt lat="51.9501517341" lon="-2.2244515736"><ele>10.23</ele><time>2011-10-26T11:27:21Z</time></trkpt><trkpt lat="51.9501014426" lon="-2.2245261725"><ele>10.23</ele><time>2011-10-26T11:27:28Z</time></trkpt><trkpt lat="51.9500277657" lon="-2.2246410884"><ele>10.23</ele><time>2011-10-26T11:27:37Z</time></trkpt><trkpt lat="51.9500080682" lon="-2.2246571817"><ele>9.75</ele><time>2011-10-26T11:27:39Z</time></trkpt><trkpt lat="51.9499373250" lon="-2.2247617878"><ele>9.75</ele><time>2011-10-26T11:27:48Z</time></trkpt><trkpt lat="51.9498640671" lon="-2.2248479538"><ele>9.75</ele><time>2011-10-26T11:27:56Z</time></trkpt><trkpt lat="51.9497861154" lon="-2.2249299288"><ele>9.75</ele><time>2011-10-26T11:28:04Z</time></trkpt><trkpt lat="51.9497080799" lon="-2.2249893565"><ele>9.75</ele><time>2011-10-26T11:28:12Z</time></trkpt><trkpt lat="51.9496405218" lon="-2.2250547353"><ele>10.23</ele><time>2011-10-26T11:28:20Z</time></trkpt><trkpt lat="51.9495580439" lon="-2.2251177672"><ele>10.23</ele><time>2011-10-26T11:28:28Z</time></trkpt><trkpt lat="51.9494897313" lon="-2.2251582518"><ele>9.75</ele><time>2011-10-26T11:28:35Z</time></trkpt><trkpt lat="51.9494009670" lon="-2.2252094653"><ele>10.71</ele><time>2011-10-26T11:28:43Z</time></trkpt><trkpt lat="51.9493681937" lon="-2.2252322640"><ele>9.75</ele><time>2011-10-26T11:28:48Z</time></trkpt><trkpt lat="51.9493681937" lon="-2.2252322640"><ele>9.75</ele><time>2011-10-26T11:28:49Z</time></trkpt><trkpt lat="51.9493331574" lon="-2.2252406459"><ele>9.27</ele><time>2011-10-26T11:28:52Z</time></trkpt><trkpt lat="51.9492402859" lon="-2.2252616007"><ele>10.23</ele><time>2011-10-26T11:29:01Z</time></trkpt><trkpt lat="51.9491807744" lon="-2.2252911888"><ele>10.23</ele><time>2011-10-26T11:29:08Z</time></trkpt><trkpt lat="51.9491379429" lon="-2.2253286559"><ele>10.23</ele><time>2011-10-26T11:29:17Z</time></trkpt><trkpt lat="51.9491145574" lon="-2.2253211122"><ele>10.23</ele><time>2011-10-26T11:29:24Z</time></trkpt><trkpt lat="51.9490541238" lon="-2.2253595013"><ele>10.23</ele><time>2011-10-26T11:29:32Z</time></trkpt><trkpt lat="51.9489815366" lon="-2.2253799532"><ele>11.19</ele><time>2011-10-26T11:29:40Z</time></trkpt><trkpt lat="51.9489242043" lon="-2.2254042607"><ele>11.19</ele><time>2011-10-26T11:29:47Z</time></trkpt><trkpt lat="51.9488777686" lon="-2.2254299093"><ele>11.67</ele><time>2011-10-26T11:29:53Z</time></trkpt><trkpt lat="51.9488508627" lon="-2.2254434042"><ele>12.15</ele><time>2011-10-26T11:30:00Z</time></trkpt><trkpt lat="51.9488443248" lon="-2.2254491877"><ele>11.67</ele><time>2011-10-26T11:30:09Z</time></trkpt><trkpt lat="51.9488443248" lon="-2.2254491877"><ele>12.15</ele><time>2011-10-26T11:30:19Z</time></trkpt><trkpt lat="51.9488405529" lon="-2.2254471760"><ele>12.15</ele><time>2011-10-26T11:30:33Z</time></trkpt><trkpt lat="51.9488328416" lon="-2.2254611738"><ele>12.63</ele><time>2011-10-26T11:30:38Z</time></trkpt><trkpt lat="51.9487921055" lon="-2.2255130578"><ele>13.12</ele><time>2011-10-26T11:30:49Z</time></trkpt><trkpt lat="51.9487848971" lon="-2.2255207691"><ele>12.63</ele><time>2011-10-26T11:30:50Z</time></trkpt><trkpt lat="51.9487636909" lon="-2.2256161552"><ele>13.60</ele><time>2011-10-26T11:30:58Z</time></trkpt><trkpt lat="51.9487863220" lon="-2.2257016506"><ele>14.08</ele><time>2011-10-26T11:31:05Z</time></trkpt><trkpt lat="51.9488083664" lon="-2.2258506808"><ele>14.56</ele><time>2011-10-26T11:31:13Z</time></trkpt><trkpt lat="51.9488168322" lon="-2.2259226814"><ele>14.56</ele><time>2011-10-26T11:31:18Z</time></trkpt><trkpt lat="51.9488517847" lon="-2.2260844521"><ele>15.04</ele><time>2011-10-26T11:31:28Z</time></trkpt><trkpt lat="51.9488563109" lon="-2.2261169739"><ele>15.04</ele><time>2011-10-26T11:31:30Z</time></trkpt><trkpt lat="51.9488942809" lon="-2.2262859531"><ele>15.52</ele><time>2011-10-26T11:31:40Z</time></trkpt><trkpt lat="51.9489173312" lon="-2.2263872903"><ele>16.00</ele><time>2011-10-26T11:31:48Z</time></trkpt><trkpt lat="51.9489238691" lon="-2.2264088318"><ele>16.00</ele><time>2011-10-26T11:31:55Z</time></trkpt><trkpt lat="51.9489238691" lon="-2.2264088318"><ele>15.52</ele><time>2011-10-26T11:32:08Z</time></trkpt><trkpt lat="51.9489275571" lon="-2.2264478914"><ele>16.00</ele><time>2011-10-26T11:32:16Z</time></trkpt><trkpt lat="51.9488708954" lon="-2.2265339736"><ele>16.00</ele><time>2011-10-26T11:32:24Z</time></trkpt><trkpt lat="51.9488936104" lon="-2.2265557665"><ele>15.52</ele><time>2011-10-26T11:32:34Z</time></trkpt><trkpt lat="51.9489047583" lon="-2.2266026214"><ele>16.00</ele><time>2011-10-26T11:32:39Z</time></trkpt><trkpt lat="51.9489400461" lon="-2.2267475445"><ele>15.52</ele><time>2011-10-26T11:32:47Z</time></trkpt><trkpt lat="51.9489718974" lon="-2.2268770449"><ele>15.04</ele><time>2011-10-26T11:32:53Z</time></trkpt><trkpt lat="51.9490099512" lon="-2.2270300984"><ele>15.04</ele><time>2011-10-26T11:33:01Z</time></trkpt><trkpt lat="51.9490262121" lon="-2.2271849122"><ele>13.60</ele><time>2011-10-26T11:33:10Z</time></trkpt><trkpt lat="51.9490271341" lon="-2.2271960601"><ele>14.08</ele><time>2011-10-26T11:33:16Z</time></trkpt><trkpt lat="51.9490271341" lon="-2.2271960601"><ele>14.08</ele><time>2011-10-26T11:33:30Z</time></trkpt><trkpt lat="51.9490355160" lon="-2.2272515483"><ele>14.08</ele><time>2011-10-26T11:33:43Z</time></trkpt><trkpt lat="51.9490555488" lon="-2.2273711581"><ele>13.60</ele><time>2011-10-26T11:33:50Z</time></trkpt><trkpt lat="51.9490563869" lon="-2.2274708189"><ele>13.12</ele><time>2011-10-26T11:33:57Z</time></trkpt><trkpt lat="51.9490422215" lon="-2.2274894267"><ele>11.67</ele><time>2011-10-26T11:34:00Z</time></trkpt><trkpt lat="51.9489649404" lon="-2.2274021711"><ele>10.23</ele><time>2011-10-26T11:34:09Z</time></trkpt><trkpt lat="51.9489390403" lon="-2.2273956332"><ele>10.23</ele><time>2011-10-26T11:34:11Z</time></trkpt><trkpt lat="51.9488505274" lon="-2.2274016682"><ele>9.27</ele><time>2011-10-26T11:34:19Z</time></trkpt><trkpt lat="51.9487985596" lon="-2.2274538036"><ele>10.23</ele><time>2011-10-26T11:34:24Z</time></trkpt><trkpt lat="51.9487287384" lon="-2.2275568172"><ele>10.23</ele><time>2011-10-26T11:34:33Z</time></trkpt><trkpt lat="51.9487527106" lon="-2.2276876587"><ele>9.27</ele><time>2011-10-26T11:34:41Z</time></trkpt><trkpt lat="51.9487880822" lon="-2.2277590726"><ele>9.75</ele><time>2011-10-26T11:34:48Z</time></trkpt><trkpt lat="51.9487876631" lon="-2.2277576476"><ele>9.27</ele><time>2011-10-26T11:35:01Z</time></trkpt><trkpt lat="51.9487688038" lon="-2.2277793568"><ele>8.31</ele><time>2011-10-26T11:35:10Z</time></trkpt><trkpt lat="51.9487683009" lon="-2.2277805302"><ele>9.27</ele><time>2011-10-26T11:35:12Z</time></trkpt></trkseg></trk></gpx>